PWSweather.com
Personal Weather Stations
Station Observations
KILASHKU1
Ashkum, IL

Ashkum, IL

Lat: 40.8779862, Lon: -87.846552

Elevation: 626

Station Type: Davis Vantage Pro 2

High Low Average
Temperature 36.3°F2.4°C 19.3°F-7.1°C 29.2°F-1.6°C
Dew Point 33.4°F0.8°C 13.9°F-10.1°C 20.9°F-6.2°C
Winds 10.0 mph 16.1 kmh Calm Calm 5.0 mph NW8.0 kmh NW
Wind Gusts 20.0 mph32.2 kmh -- 10.0 mph16.1 kmh
Humidity 92% 47% 73%
Pressure 30.55 in1034.5 mb 30.34 in1027.4 mb -
Precipitation 0.00 in0.0 mm - -
Hour Temp Dew Point Humidity Winds Wind Gusts Pressure Precip Precip Rate Daily Precip Total
12:00 AM 36.3°F2.4°C 33.1°F0.6°C 88% 5.0 mph NNW8.0 kmh NNW 14.0 mph22.5 kmh 30.34 in1027.4 mb 0.00 in0.0 mm 0.00 in0.0 mm 0.00 in0.0 mm
12:02 AM 36.3°F2.4°C 33.4°F0.8°C 89% 4.0 mph NNW6.4 kmh NNW 12.0 mph19.3 kmh 30.34 in1027.4 mb 0.00 in0.0 mm 0.00 in0.0 mm 0.00 in0.0 mm
12:04 AM 36.3°F2.4°C 33.1°F0.6°C 88% 4.0 mph NNW6.4 kmh NNW 12.0 mph19.3 kmh 30.34 in1027.4 mb 0.00 in0.0 mm 0.00 in0.0 mm 0.00 in0.0 mm
12:06 AM 36.2°F2.3°C 33.0°F0.6°C 88% 4.0 mph NNW6.4 kmh NNW 15.0 mph24.1 kmh 30.34 in1027.4 mb 0.00 in0.0 mm 0.00 in0.0 mm 0.00 in0.0 mm
12:08 AM 36.1°F2.3°C 32.9°F0.5°C 88% 4.0 mph NNW6.4 kmh NNW 15.0 mph24.1 kmh 30.34 in1027.4 mb 0.00 in0.0 mm 0.00 in0.0 mm 0.00 in0.0 mm
12:10 AM 35.9°F2.2°C 32.7°F0.4°C 88% 5.0 mph NNW8.0 kmh NNW 15.0 mph24.1 kmh 30.34 in1027.4 mb 0.00 in0.0 mm 0.00 in0.0 mm 0.00 in0.0 mm
12:12 AM 35.8°F2.1°C 32.6°F0.3°C 88% 5.0 mph NNW8.0 kmh NNW 15.0 mph24.1 kmh 30.34 in1027.4 mb 0.00 in0.0 mm 0.00 in0.0 mm 0.00 in0.0 mm
12:14 AM 35.7°F2.1°C 32.5°F0.3°C 88% 6.0 mph NNW9.7 kmh NNW 15.0 mph24.1 kmh 30.34 in1027.4 mb 0.00 in0.0 mm 0.00 in0.0 mm 0.00 in0.0 mm
12:16 AM 35.6°F2.0°C 32.4°F0.2°C 88% 6.0 mph NNW9.7 kmh NNW 15.0 mph24.1 kmh 30.35 in1027.8 mb 0.00 in0.0 mm 0.00 in0.0 mm 0.00 in0.0 mm
12:18 AM 35.5°F1.9°C 32.3°F0.2°C 88% 5.0 mph NNW8.0 kmh NNW 12.0 mph19.3 kmh 30.35 in1027.8 mb 0.00 in0.0 mm 0.00 in0.0 mm 0.00 in0.0 mm
12:20 AM 35.5°F1.9°C 32.3°F0.2°C 88% 5.0 mph NNW8.0 kmh NNW 12.0 mph19.3 kmh 30.35 in1027.8 mb 0.00 in0.0 mm 0.00 in0.0 mm 0.00 in0.0 mm
12:22 AM 35.4°F1.9°C 32.2°F0.1°C 88% 4.0 mph NNW6.4 kmh NNW 12.0 mph19.3 kmh 30.35 in1027.8 mb 0.00 in0.0 mm 0.00 in0.0 mm 0.00 in0.0 mm
12:24 AM 35.3°F1.8°C 32.1°F0.1°C 88% 5.0 mph N8.0 kmh N 14.0 mph22.5 kmh 30.35 in1027.8 mb 0.00 in0.0 mm 0.00 in0.0 mm 0.00 in0.0 mm
12:26 AM 35.2°F1.8°C 32.0°F0.0°C 88% 5.0 mph NNW8.0 kmh NNW 14.0 mph22.5 kmh 30.35 in1027.8 mb 0.00 in0.0 mm 0.00 in0.0 mm 0.00 in0.0 mm
12:28 AM 35.2°F1.8°C 32.0°F0.0°C 88% 5.0 mph NNW8.0 kmh NNW 14.0 mph22.5 kmh 30.35 in1027.8 mb 0.00 in0.0 mm 0.00 in0.0 mm 0.00 in0.0 mm
12:30 AM 35.2°F1.8°C 32.0°F0.0°C 88% 5.0 mph NNW8.0 kmh NNW 14.0 mph22.5 kmh 30.35 in1027.8 mb 0.00 in0.0 mm 0.00 in0.0 mm 0.00 in0.0 mm
12:32 AM 35.1°F1.7°C 32.2°F0.1°C 89% 5.0 mph NNW8.0 kmh NNW 14.0 mph22.5 kmh 30.35 in1027.8 mb 0.00 in0.0 mm 0.00 in0.0 mm 0.00 in0.0 mm
12:34 AM 35.1°F1.7°C 32.2°F0.1°C 89% 4.0 mph NNW6.4 kmh NNW 12.0 mph19.3 kmh 30.35 in1027.8 mb 0.00 in0.0 mm 0.00 in0.0 mm 0.00 in0.0 mm
12:36 AM 35.1°F1.7°C 32.2°F0.1°C 89% 4.0 mph NNW6.4 kmh NNW 12.0 mph19.3 kmh 30.35 in1027.8 mb 0.00 in0.0 mm 0.00 in0.0 mm 0.00 in0.0 mm
12:38 AM 35.0°F1.7°C 31.8°F-0.1°C 88% 4.0 mph N6.4 kmh N 12.0 mph19.3 kmh 30.35 in1027.8 mb 0.00 in0.0 mm 0.00 in0.0 mm 0.00 in0.0 mm
12:40 AM 35.0°F1.7°C 31.8°F-0.1°C 88% 3.0 mph N4.8 kmh N 12.0 mph19.3 kmh 30.35 in1027.8 mb 0.00 in0.0 mm 0.00 in0.0 mm 0.00 in0.0 mm
12:42 AM 35.0°F1.7°C 32.1°F0.1°C 89% 3.0 mph N4.8 kmh N 12.0 mph19.3 kmh 30.36 in1028.1 mb 0.00 in0.0 mm 0.00 in0.0 mm 0.00 in0.0 mm
12:44 AM 35.0°F1.7°C 32.1°F0.1°C 89% 4.0 mph NNW6.4 kmh NNW 12.0 mph19.3 kmh 30.36 in1028.1 mb 0.00 in0.0 mm 0.00 in0.0 mm 0.00 in0.0 mm
12:46 AM 35.0°F1.7°C 32.1°F0.1°C 89% 3.0 mph NNW4.8 kmh NNW 13.0 mph20.9 kmh 30.36 in1028.1 mb 0.00 in0.0 mm 0.00 in0.0 mm 0.00 in0.0 mm
12:48 AM 34.9°F1.6°C 31.7°F-0.2°C 88% 5.0 mph NNW8.0 kmh NNW 13.0 mph20.9 kmh 30.36 in1028.1 mb 0.00 in0.0 mm 0.00 in0.0 mm 0.00 in0.0 mm
12:50 AM 34.8°F1.6°C 31.6°F-0.2°C 88% 6.0 mph NNW9.7 kmh NNW 13.0 mph20.9 kmh 30.36 in1028.1 mb 0.00 in0.0 mm 0.00 in0.0 mm 0.00 in0.0 mm
12:52 AM 34.7°F1.5°C 31.5°F-0.3°C 88% 5.0 mph NNW8.0 kmh NNW 13.0 mph20.9 kmh 30.36 in1028.1 mb 0.00 in0.0 mm 0.00 in0.0 mm 0.00 in0.0 mm
12:54 AM 34.6°F1.4°C 31.4°F-0.3°C 88% 6.0 mph NNW9.7 kmh NNW 13.0 mph20.9 kmh 30.36 in1028.1 mb 0.00 in0.0 mm 0.00 in0.0 mm 0.00 in0.0 mm
12:56 AM 34.5°F1.4°C 31.3°F-0.4°C 88% 6.0 mph NNW9.7 kmh NNW 13.0 mph20.9 kmh 30.36 in1028.1 mb 0.00 in0.0 mm 0.00 in0.0 mm 0.00 in0.0 mm
12:58 AM 34.4°F1.3°C 31.2°F-0.4°C 88% 5.0 mph NNW8.0 kmh NNW 14.0 mph22.5 kmh 30.36 in1028.1 mb 0.00 in0.0 mm 0.00 in0.0 mm 0.00 in0.0 mm
01:00 AM 34.3°F1.3°C 31.1°F-0.5°C 88% 5.0 mph NNW8.0 kmh NNW 14.0 mph22.5 kmh 30.37 in1028.4 mb 0.00 in0.0 mm 0.00 in0.0 mm 0.00 in0.0 mm
01:02 AM 34.3°F1.3°C 31.1°F-0.5°C 88% 5.0 mph NNW8.0 kmh NNW 14.0 mph22.5 kmh 30.37 in1028.4 mb 0.00 in0.0 mm 0.00 in0.0 mm 0.00 in0.0 mm
01:04 AM 34.3°F1.3°C 31.1°F-0.5°C 88% 4.0 mph NNW6.4 kmh NNW 14.0 mph22.5 kmh 30.37 in1028.4 mb 0.00 in0.0 mm 0.00 in0.0 mm 0.00 in0.0 mm
01:06 AM 34.2°F1.2°C 31.0°F-0.6°C 88% 4.0 mph NNW6.4 kmh NNW 14.0 mph22.5 kmh 30.37 in1028.4 mb 0.00 in0.0 mm 0.00 in0.0 mm 0.00 in0.0 mm
01:08 AM 34.2°F1.2°C 31.0°F-0.6°C 88% 4.0 mph NNW6.4 kmh NNW 10.0 mph16.1 kmh 30.37 in1028.4 mb 0.00 in0.0 mm 0.00 in0.0 mm 0.00 in0.0 mm
01:10 AM 34.1°F1.2°C 30.9°F-0.6°C 88% 4.0 mph NNW6.4 kmh NNW 13.0 mph20.9 kmh 30.37 in1028.4 mb 0.00 in0.0 mm 0.00 in0.0 mm 0.00 in0.0 mm
01:12 AM 34.1°F1.2°C 31.2°F-0.4°C 89% 4.0 mph NNW6.4 kmh NNW 13.0 mph20.9 kmh 30.37 in1028.4 mb 0.00 in0.0 mm 0.00 in0.0 mm 0.00 in0.0 mm
01:14 AM 34.1°F1.2°C 31.2°F-0.4°C 89% 5.0 mph NNW8.0 kmh NNW 13.0 mph20.9 kmh 30.38 in1028.8 mb 0.00 in0.0 mm 0.00 in0.0 mm 0.00 in0.0 mm
01:16 AM 34.1°F1.2°C 31.2°F-0.4°C 89% 6.0 mph NNW9.7 kmh NNW 13.0 mph20.9 kmh 30.38 in1028.8 mb 0.00 in0.0 mm 0.00 in0.0 mm 0.00 in0.0 mm
01:18 AM 34.0°F1.1°C 31.1°F-0.5°C 89% 7.0 mph NNW11.3 kmh NNW 16.0 mph25.7 kmh 30.38 in1028.8 mb 0.00 in0.0 mm 0.00 in0.0 mm 0.00 in0.0 mm
01:20 AM 33.9°F1.1°C 30.7°F-0.7°C 88% 7.0 mph NNW11.3 kmh NNW 16.0 mph25.7 kmh 30.37 in1028.4 mb 0.00 in0.0 mm 0.00 in0.0 mm 0.00 in0.0 mm
01:22 AM 33.8°F1.0°C 30.6°F-0.8°C 88% 8.0 mph NNW12.9 kmh NNW 18.0 mph29.0 kmh 30.38 in1028.8 mb 0.00 in0.0 mm 0.00 in0.0 mm 0.00 in0.0 mm
01:24 AM 33.8°F1.0°C 30.9°F-0.6°C 89% 9.0 mph NNW14.5 kmh NNW 18.0 mph29.0 kmh 30.38 in1028.8 mb 0.00 in0.0 mm 0.00 in0.0 mm 0.00 in0.0 mm
01:26 AM 33.7°F0.9°C 30.8°F-0.7°C 89% 9.0 mph NNW14.5 kmh NNW 18.0 mph29.0 kmh 30.38 in1028.8 mb 0.00 in0.0 mm 0.00 in0.0 mm 0.00 in0.0 mm
01:28 AM 33.6°F0.9°C 30.4°F-0.9°C 88% 10.0 mph NNW16.1 kmh NNW 18.0 mph29.0 kmh 30.38 in1028.8 mb 0.00 in0.0 mm 0.00 in0.0 mm 0.00 in0.0 mm
01:30 AM 33.5°F0.8°C 30.3°F-0.9°C 88% 10.0 mph N16.1 kmh N 20.0 mph32.2 kmh 30.38 in1028.8 mb 0.00 in0.0 mm 0.00 in0.0 mm 0.00 in0.0 mm
01:32 AM 33.4°F0.8°C 30.2°F-1.0°C 88% 10.0 mph NNW16.1 kmh NNW 20.0 mph32.2 kmh 30.37 in1028.4 mb 0.00 in0.0 mm 0.00 in0.0 mm 0.00 in0.0 mm
01:34 AM 33.3°F0.7°C 30.1°F-1.1°C 88% 10.0 mph NNW16.1 kmh NNW 20.0 mph32.2 kmh 30.37 in1028.4 mb 0.00 in0.0 mm 0.00 in0.0 mm 0.00 in0.0 mm
01:36 AM 33.2°F0.7°C 30.3°F-0.9°C 89% 9.0 mph NNW14.5 kmh NNW 20.0 mph32.2 kmh 30.37 in1028.4 mb 0.00 in0.0 mm 0.00 in0.0 mm 0.00 in0.0 mm
01:38 AM 33.2°F0.7°C 30.0°F-1.1°C 88% 8.0 mph NNW12.9 kmh NNW 20.0 mph32.2 kmh 30.38 in1028.8 mb 0.00 in0.0 mm 0.00 in0.0 mm 0.00 in0.0 mm
01:40 AM 33.2°F0.7°C 30.0°F-1.1°C 88% 8.0 mph NNW12.9 kmh NNW 19.0 mph30.6 kmh 30.38 in1028.8 mb 0.00 in0.0 mm 0.00 in0.0 mm 0.00 in0.0 mm
01:42 AM 33.2°F0.7°C 30.3°F-0.9°C 89% 7.0 mph NNW11.3 kmh NNW 14.0 mph22.5 kmh 30.38 in1028.8 mb 0.00 in0.0 mm 0.00 in0.0 mm 0.00 in0.0 mm
01:44 AM 33.2°F0.7°C 30.3°F-0.9°C 89% 6.0 mph NNW9.7 kmh NNW 14.0 mph22.5 kmh 30.38 in1028.8 mb 0.00 in0.0 mm 0.00 in0.0 mm 0.00 in0.0 mm
01:46 AM 33.2°F0.7°C 30.3°F-0.9°C 89% 6.0 mph NNW9.7 kmh NNW 14.0 mph22.5 kmh 30.38 in1028.8 mb 0.00 in0.0 mm 0.00 in0.0 mm 0.00 in0.0 mm
01:48 AM 33.2°F0.7°C 30.3°F-0.9°C 89% 6.0 mph NNW9.7 kmh NNW 14.0 mph22.5 kmh 30.38 in1028.8 mb 0.00 in0.0 mm 0.00 in0.0 mm 0.00 in0.0 mm
01:50 AM 33.2°F0.7°C 30.6°F-0.8°C 90% 5.0 mph NNW8.0 kmh NNW 10.0 mph16.1 kmh 30.38 in1028.8 mb 0.00 in0.0 mm 0.00 in0.0 mm 0.00 in0.0 mm
01:52 AM 33.2°F0.7°C 30.6°F-0.8°C 90% 5.0 mph NNW8.0 kmh NNW 11.0 mph17.7 kmh 30.38 in1028.8 mb 0.00 in0.0 mm 0.00 in0.0 mm 0.00 in0.0 mm
01:54 AM 33.1°F0.6°C 30.5°F-0.8°C 90% 6.0 mph NNW9.7 kmh NNW 13.0 mph20.9 kmh 30.38 in1028.8 mb 0.00 in0.0 mm 0.00 in0.0 mm 0.00 in0.0 mm
01:56 AM 33.0°F0.6°C 30.4°F-0.9°C 90% 7.0 mph NNW11.3 kmh NNW 13.0 mph20.9 kmh 30.38 in1028.8 mb 0.00 in0.0 mm 0.00 in0.0 mm 0.00 in0.0 mm
01:58 AM 32.9°F0.5°C 30.3°F-0.9°C 90% 7.0 mph NNW11.3 kmh NNW 13.0 mph20.9 kmh 30.38 in1028.8 mb 0.00 in0.0 mm 0.00 in0.0 mm 0.00 in0.0 mm
02:00 AM 32.8°F0.4°C 30.2°F-1.0°C 90% 8.0 mph NNW12.9 kmh NNW 14.0 mph22.5 kmh 30.38 in1028.8 mb 0.00 in0.0 mm 0.00 in0.0 mm 0.00 in0.0 mm
02:02 AM 32.7°F0.4°C 30.1°F-1.1°C 90% 8.0 mph NNW12.9 kmh NNW 16.0 mph25.7 kmh 30.37 in1028.4 mb 0.00 in0.0 mm 0.00 in0.0 mm 0.00 in0.0 mm
02:04 AM 32.6°F0.3°C 30.0°F-1.1°C 90% 8.0 mph NNW12.9 kmh NNW 16.0 mph25.7 kmh 30.37 in1028.4 mb 0.00 in0.0 mm 0.00 in0.0 mm 0.00 in0.0 mm
02:06 AM 32.6°F0.3°C 30.0°F-1.1°C 90% 7.0 mph NNW11.3 kmh NNW 16.0 mph25.7 kmh 30.37 in1028.4 mb 0.00 in0.0 mm 0.00 in0.0 mm 0.00 in0.0 mm
02:08 AM 32.5°F0.3°C 29.9°F-1.2°C 90% 7.0 mph NNW11.3 kmh NNW 16.0 mph25.7 kmh 30.37 in1028.4 mb 0.00 in0.0 mm 0.00 in0.0 mm 0.00 in0.0 mm
02:10 AM 32.4°F0.2°C 29.8°F-1.2°C 90% 7.0 mph NNW11.3 kmh NNW 16.0 mph25.7 kmh 30.37 in1028.4 mb 0.00 in0.0 mm 0.00 in0.0 mm 0.00 in0.0 mm
02:12 AM 32.4°F0.2°C 29.8°F-1.2°C 90% 7.0 mph NNW11.3 kmh NNW 15.0 mph24.1 kmh 30.37 in1028.4 mb 0.00 in0.0 mm 0.00 in0.0 mm 0.00 in0.0 mm
02:14 AM 32.4°F0.2°C 29.8°F-1.2°C 90% 8.0 mph NNW12.9 kmh NNW 18.0 mph29.0 kmh 30.37 in1028.4 mb 0.00 in0.0 mm 0.00 in0.0 mm 0.00 in0.0 mm
02:16 AM 32.4°F0.2°C 29.8°F-1.2°C 90% 8.0 mph NNW12.9 kmh NNW 18.0 mph29.0 kmh 30.38 in1028.8 mb 0.00 in0.0 mm 0.00 in0.0 mm 0.00 in0.0 mm
02:18 AM 32.4°F0.2°C 30.1°F-1.1°C 91% 8.0 mph NNW12.9 kmh NNW 18.0 mph29.0 kmh 30.38 in1028.8 mb 0.00 in0.0 mm 0.00 in0.0 mm 0.00 in0.0 mm
02:20 AM 32.4°F0.2°C 30.1°F-1.1°C 91% 8.0 mph NNW12.9 kmh NNW 18.0 mph29.0 kmh 30.38 in1028.8 mb 0.00 in0.0 mm 0.00 in0.0 mm 0.00 in0.0 mm
02:22 AM 32.4°F0.2°C 30.1°F-1.1°C 91% 9.0 mph NNW14.5 kmh NNW 18.0 mph29.0 kmh 30.38 in1028.8 mb 0.00 in0.0 mm 0.00 in0.0 mm 0.00 in0.0 mm
02:24 AM 32.3°F0.2°C 30.0°F-1.1°C 91% 9.0 mph NNW14.5 kmh NNW 17.0 mph27.4 kmh 30.38 in1028.8 mb 0.00 in0.0 mm 0.00 in0.0 mm 0.00 in0.0 mm
02:26 AM 32.3°F0.2°C 30.0°F-1.1°C 91% 9.0 mph NNW14.5 kmh NNW 17.0 mph27.4 kmh 30.38 in1028.8 mb 0.00 in0.0 mm 0.00 in0.0 mm 0.00 in0.0 mm
02:28 AM 32.2°F0.1°C 29.9°F-1.2°C 91% 9.0 mph NNW14.5 kmh NNW 17.0 mph27.4 kmh 30.38 in1028.8 mb 0.00 in0.0 mm 0.00 in0.0 mm 0.00 in0.0 mm
02:30 AM 32.2°F0.1°C 29.9°F-1.2°C 91% 9.0 mph NNW14.5 kmh NNW 17.0 mph27.4 kmh 30.38 in1028.8 mb 0.00 in0.0 mm 0.00 in0.0 mm 0.00 in0.0 mm
02:32 AM 32.2°F0.1°C 29.9°F-1.2°C 91% 8.0 mph NNW12.9 kmh NNW 16.0 mph25.7 kmh 30.37 in1028.4 mb 0.00 in0.0 mm 0.00 in0.0 mm 0.00 in0.0 mm
02:34 AM 32.2°F0.1°C 29.9°F-1.2°C 91% 7.0 mph NNW11.3 kmh NNW 16.0 mph25.7 kmh 30.37 in1028.4 mb 0.00 in0.0 mm 0.00 in0.0 mm 0.00 in0.0 mm
02:36 AM 32.1°F0.1°C 30.0°F-1.1°C 92% 7.0 mph NNW11.3 kmh NNW 14.0 mph22.5 kmh 30.38 in1028.8 mb 0.00 in0.0 mm 0.00 in0.0 mm 0.00 in0.0 mm
02:38 AM 32.1°F0.1°C 30.0°F-1.1°C 92% 6.0 mph NNW9.7 kmh NNW 11.0 mph17.7 kmh 30.38 in1028.8 mb 0.00 in0.0 mm 0.00 in0.0 mm 0.00 in0.0 mm
02:40 AM 32.1°F0.1°C 30.0°F-1.1°C 92% 6.0 mph NNW9.7 kmh NNW 11.0 mph17.7 kmh 30.38 in1028.8 mb 0.00 in0.0 mm 0.00 in0.0 mm 0.00 in0.0 mm
02:42 AM 32.0°F0.0°C 29.9°F-1.2°C 92% 6.0 mph NNW9.7 kmh NNW 11.0 mph17.7 kmh 30.38 in1028.8 mb 0.00 in0.0 mm 0.00 in0.0 mm 0.00 in0.0 mm
02:44 AM 32.0°F0.0°C 29.9°F-1.2°C 92% 5.0 mph NNW8.0 kmh NNW 11.0 mph17.7 kmh 30.38 in1028.8 mb 0.00 in0.0 mm 0.00 in0.0 mm 0.00 in0.0 mm
02:46 AM 31.9°F-0.1°C 29.8°F-1.2°C 92% 6.0 mph NNW9.7 kmh NNW 12.0 mph19.3 kmh 30.37 in1028.4 mb 0.00 in0.0 mm 0.00 in0.0 mm 0.00 in0.0 mm
02:48 AM 31.7°F-0.2°C 29.6°F-1.3°C 92% 6.0 mph NNW9.7 kmh NNW 12.0 mph19.3 kmh 30.38 in1028.8 mb 0.00 in0.0 mm 0.00 in0.0 mm 0.00 in0.0 mm
02:50 AM 31.6°F-0.2°C 29.5°F-1.4°C 92% 6.0 mph NNW9.7 kmh NNW 12.0 mph19.3 kmh 30.38 in1028.8 mb 0.00 in0.0 mm 0.00 in0.0 mm 0.00 in0.0 mm
02:52 AM 31.5°F-0.3°C 29.4°F-1.4°C 92% 7.0 mph NNW11.3 kmh NNW 12.0 mph19.3 kmh 30.38 in1028.8 mb 0.00 in0.0 mm 0.00 in0.0 mm 0.00 in0.0 mm
02:54 AM 31.4°F-0.3°C 29.3°F-1.5°C 92% 8.0 mph NNW12.9 kmh NNW 15.0 mph24.1 kmh 30.38 in1028.8 mb 0.00 in0.0 mm 0.00 in0.0 mm 0.00 in0.0 mm
02:56 AM 31.4°F-0.3°C 29.3°F-1.5°C 92% 8.0 mph NNW12.9 kmh NNW 17.0 mph27.4 kmh 30.38 in1028.8 mb 0.00 in0.0 mm 0.00 in0.0 mm 0.00 in0.0 mm
02:58 AM 31.3°F-0.4°C 29.2°F-1.6°C 92% 8.0 mph NNW12.9 kmh NNW 17.0 mph27.4 kmh 30.38 in1028.8 mb 0.00 in0.0 mm 0.00 in0.0 mm 0.00 in0.0 mm
03:00 AM 31.2°F-0.4°C 29.1°F-1.6°C 92% 8.0 mph NNW12.9 kmh NNW 17.0 mph27.4 kmh 30.38 in1028.8 mb 0.00 in0.0 mm 0.00 in0.0 mm 0.00 in0.0 mm
03:02 AM 31.2°F-0.4°C 29.1°F-1.6°C 92% 8.0 mph NNW12.9 kmh NNW 17.0 mph27.4 kmh 30.38 in1028.8 mb 0.00 in0.0 mm 0.00 in0.0 mm 0.00 in0.0 mm
03:04 AM 31.1°F-0.5°C 29.0°F-1.7°C 92% 8.0 mph NNW12.9 kmh NNW 17.0 mph27.4 kmh 30.38 in1028.8 mb 0.00 in0.0 mm 0.00 in0.0 mm 0.00 in0.0 mm
03:06 AM 31.1°F-0.5°C 29.0°F-1.7°C 92% 8.0 mph NNW12.9 kmh NNW 17.0 mph27.4 kmh 30.38 in1028.8 mb 0.00 in0.0 mm 0.00 in0.0 mm 0.00 in0.0 mm
03:08 AM 31.1°F-0.5°C 29.0°F-1.7°C 92% 7.0 mph NNW11.3 kmh NNW 17.0 mph27.4 kmh 30.38 in1028.8 mb 0.00 in0.0 mm 0.00 in0.0 mm 0.00 in0.0 mm
03:10 AM 31.0°F-0.6°C 28.9°F-1.7°C 92% 8.0 mph NNW12.9 kmh NNW 17.0 mph27.4 kmh 30.38 in1028.8 mb 0.00 in0.0 mm 0.00 in0.0 mm 0.00 in0.0 mm
03:12 AM 31.0°F-0.6°C 28.9°F-1.7°C 92% 7.0 mph N11.3 kmh N 14.0 mph22.5 kmh 30.38 in1028.8 mb 0.00 in0.0 mm 0.00 in0.0 mm 0.00 in0.0 mm
03:14 AM 30.9°F-0.6°C 28.9°F-1.7°C 92% 5.0 mph N8.0 kmh N 14.0 mph22.5 kmh 30.38 in1028.8 mb 0.00 in0.0 mm 0.00 in0.0 mm 0.00 in0.0 mm
03:16 AM 30.8°F-0.7°C 28.8°F-1.8°C 92% 5.0 mph NNW8.0 kmh NNW 14.0 mph22.5 kmh 30.37 in1028.4 mb 0.00 in0.0 mm 0.00 in0.0 mm 0.00 in0.0 mm
03:18 AM 30.8°F-0.7°C 28.8°F-1.8°C 92% 5.0 mph NNW8.0 kmh NNW 14.0 mph22.5 kmh 30.38 in1028.8 mb 0.00 in0.0 mm 0.00 in0.0 mm 0.00 in0.0 mm
03:20 AM 30.7°F-0.7°C 28.7°F-1.8°C 92% 5.0 mph NNW8.0 kmh NNW 14.0 mph22.5 kmh 30.38 in1028.8 mb 0.00 in0.0 mm 0.00 in0.0 mm 0.00 in0.0 mm
03:22 AM 30.7°F-0.7°C 28.7°F-1.8°C 92% 5.0 mph NNW8.0 kmh NNW 14.0 mph22.5 kmh 30.37 in1028.4 mb 0.00 in0.0 mm 0.00 in0.0 mm 0.00 in0.0 mm
03:24 AM 30.6°F-0.8°C 28.3°F-2.1°C 91% 6.0 mph NNW9.7 kmh NNW 14.0 mph22.5 kmh 30.37 in1028.4 mb 0.00 in0.0 mm 0.00 in0.0 mm 0.00 in0.0 mm
03:26 AM 30.6°F-0.8°C 28.3°F-2.1°C 91% 6.0 mph NNW9.7 kmh NNW 14.0 mph22.5 kmh 30.37 in1028.4 mb 0.00 in0.0 mm 0.00 in0.0 mm 0.00 in0.0 mm
03:28 AM 30.6°F-0.8°C 28.3°F-2.1°C 91% 6.0 mph NNW9.7 kmh NNW 11.0 mph17.7 kmh 30.38 in1028.8 mb 0.00 in0.0 mm 0.00 in0.0 mm 0.00 in0.0 mm
03:30 AM 30.6°F-0.8°C 28.3°F-2.1°C 91% 6.0 mph NNW9.7 kmh NNW 14.0 mph22.5 kmh 30.38 in1028.8 mb 0.00 in0.0 mm 0.00 in0.0 mm 0.00 in0.0 mm
03:32 AM 30.6°F-0.8°C 28.3°F-2.1°C 91% 6.0 mph NNW9.7 kmh NNW 14.0 mph22.5 kmh 30.38 in1028.8 mb 0.00 in0.0 mm 0.00 in0.0 mm 0.00 in0.0 mm
03:34 AM 30.6°F-0.8°C 28.3°F-2.1°C 91% 6.0 mph NNW9.7 kmh NNW 14.0 mph22.5 kmh 30.38 in1028.8 mb 0.00 in0.0 mm 0.00 in0.0 mm 0.00 in0.0 mm
03:36 AM 30.6°F-0.8°C 28.0°F-2.2°C 90% 7.0 mph NNW11.3 kmh NNW 15.0 mph24.1 kmh 30.38 in1028.8 mb 0.00 in0.0 mm 0.00 in0.0 mm 0.00 in0.0 mm
03:38 AM 30.7°F-0.7°C 28.1°F-2.2°C 90% 7.0 mph NNW11.3 kmh NNW 15.0 mph24.1 kmh 30.39 in1029.1 mb 0.00 in0.0 mm 0.00 in0.0 mm 0.00 in0.0 mm
03:40 AM 30.7°F-0.7°C 28.1°F-2.2°C 90% 7.0 mph NNW11.3 kmh NNW 15.0 mph24.1 kmh 30.39 in1029.1 mb 0.00 in0.0 mm 0.00 in0.0 mm 0.00 in0.0 mm
03:42 AM 30.8°F-0.7°C 28.2°F-2.1°C 90% 7.0 mph NNW11.3 kmh NNW 15.0 mph24.1 kmh 30.39 in1029.1 mb 0.00 in0.0 mm 0.00 in0.0 mm 0.00 in0.0 mm
03:44 AM 30.8°F-0.7°C 28.2°F-2.1°C 90% 7.0 mph NNW11.3 kmh NNW 15.0 mph24.1 kmh 30.39 in1029.1 mb 0.00 in0.0 mm 0.00 in0.0 mm 0.00 in0.0 mm
03:46 AM 30.8°F-0.7°C 28.2°F-2.1°C 90% 7.0 mph NNW11.3 kmh NNW 14.0 mph22.5 kmh 30.39 in1029.1 mb 0.00 in0.0 mm 0.00 in0.0 mm 0.00 in0.0 mm
03:48 AM 30.8°F-0.7°C 28.2°F-2.1°C 90% 7.0 mph NNW11.3 kmh NNW 13.0 mph20.9 kmh 30.38 in1028.8 mb 0.00 in0.0 mm 0.00 in0.0 mm 0.00 in0.0 mm
03:50 AM 30.8°F-0.7°C 27.9°F-2.3°C 89% 7.0 mph NNW11.3 kmh NNW 13.0 mph20.9 kmh 30.38 in1028.8 mb 0.00 in0.0 mm 0.00 in0.0 mm 0.00 in0.0 mm
03:52 AM 30.8°F-0.7°C 27.9°F-2.3°C 89% 7.0 mph NNW11.3 kmh NNW 15.0 mph24.1 kmh 30.39 in1029.1 mb 0.00 in0.0 mm 0.00 in0.0 mm 0.00 in0.0 mm
03:54 AM 30.8°F-0.7°C 27.9°F-2.3°C 89% 7.0 mph NNW11.3 kmh NNW 15.0 mph24.1 kmh 30.39 in1029.1 mb 0.00 in0.0 mm 0.00 in0.0 mm 0.00 in0.0 mm
03:56 AM 30.8°F-0.7°C 27.7°F-2.4°C 88% 7.0 mph NNW11.3 kmh NNW 15.0 mph24.1 kmh 30.39 in1029.1 mb 0.00 in0.0 mm 0.00 in0.0 mm 0.00 in0.0 mm
03:58 AM 30.8°F-0.7°C 27.7°F-2.4°C 88% 7.0 mph NNW11.3 kmh NNW 15.0 mph24.1 kmh 30.39 in1029.1 mb 0.00 in0.0 mm 0.00 in0.0 mm 0.00 in0.0 mm
04:00 AM 30.8°F-0.7°C 27.7°F-2.4°C 88% 7.0 mph NNW11.3 kmh NNW 15.0 mph24.1 kmh 30.39 in1029.1 mb 0.00 in0.0 mm 0.00 in0.0 mm 0.00 in0.0 mm
04:02 AM 30.9°F-0.6°C 27.8°F-2.3°C 88% 7.0 mph NNW11.3 kmh NNW 13.0 mph20.9 kmh 30.39 in1029.1 mb 0.00 in0.0 mm 0.00 in0.0 mm 0.00 in0.0 mm
04:04 AM 30.8°F-0.7°C 27.7°F-2.4°C 88% 7.0 mph NNW11.3 kmh NNW 12.0 mph19.3 kmh 30.39 in1029.1 mb 0.00 in0.0 mm 0.00 in0.0 mm 0.00 in0.0 mm
04:06 AM 30.8°F-0.7°C 27.4°F-2.6°C 87% 7.0 mph NNW11.3 kmh NNW 13.0 mph20.9 kmh 30.39 in1029.1 mb 0.00 in0.0 mm 0.00 in0.0 mm 0.00 in0.0 mm
04:08 AM 30.8°F-0.7°C 27.4°F-2.6°C 87% 7.0 mph NNW11.3 kmh NNW 14.0 mph22.5 kmh 30.39 in1029.1 mb 0.00 in0.0 mm 0.00 in0.0 mm 0.00 in0.0 mm
04:10 AM 30.8°F-0.7°C 27.4°F-2.6°C 87% 7.0 mph NNW11.3 kmh NNW 15.0 mph24.1 kmh 30.39 in1029.1 mb 0.00 in0.0 mm 0.00 in0.0 mm 0.00 in0.0 mm
04:12 AM 30.8°F-0.7°C 27.4°F-2.6°C 87% 8.0 mph NNW12.9 kmh NNW 15.0 mph24.1 kmh 30.39 in1029.1 mb 0.00 in0.0 mm 0.00 in0.0 mm 0.00 in0.0 mm
04:14 AM 30.9°F-0.6°C 27.5°F-2.5°C 87% 7.0 mph NNW11.3 kmh NNW 15.0 mph24.1 kmh 30.39 in1029.1 mb 0.00 in0.0 mm 0.00 in0.0 mm 0.00 in0.0 mm
04:16 AM 30.8°F-0.7°C 27.4°F-2.6°C 87% 7.0 mph NNW11.3 kmh NNW 15.0 mph24.1 kmh 30.39 in1029.1 mb 0.00 in0.0 mm 0.00 in0.0 mm 0.00 in0.0 mm
04:18 AM 30.8°F-0.7°C 27.4°F-2.6°C 87% 8.0 mph NNW12.9 kmh NNW 15.0 mph24.1 kmh 30.39 in1029.1 mb 0.00 in0.0 mm 0.00 in0.0 mm 0.00 in0.0 mm
04:20 AM 30.8°F-0.7°C 27.4°F-2.6°C 87% 8.0 mph NNW12.9 kmh NNW 14.0 mph22.5 kmh 30.39 in1029.1 mb 0.00 in0.0 mm 0.00 in0.0 mm 0.00 in0.0 mm
04:22 AM 30.8°F-0.7°C 27.1°F-2.7°C 86% 8.0 mph NNW12.9 kmh NNW 14.0 mph22.5 kmh 30.39 in1029.1 mb 0.00 in0.0 mm 0.00 in0.0 mm 0.00 in0.0 mm
04:24 AM 30.8°F-0.7°C 27.1°F-2.7°C 86% 8.0 mph NNW12.9 kmh NNW 14.0 mph22.5 kmh 30.39 in1029.1 mb 0.00 in0.0 mm 0.00 in0.0 mm 0.00 in0.0 mm
04:26 AM 30.8°F-0.7°C 27.1°F-2.7°C 86% 8.0 mph NNW12.9 kmh NNW 14.0 mph22.5 kmh 30.39 in1029.1 mb 0.00 in0.0 mm 0.00 in0.0 mm 0.00 in0.0 mm
04:28 AM 30.8°F-0.7°C 27.1°F-2.7°C 86% 8.0 mph NNW12.9 kmh NNW 14.0 mph22.5 kmh 30.40 in1029.5 mb 0.00 in0.0 mm 0.00 in0.0 mm 0.00 in0.0 mm
04:30 AM 30.8°F-0.7°C 27.1°F-2.7°C 86% 8.0 mph NNW12.9 kmh NNW 14.0 mph22.5 kmh 30.40 in1029.5 mb 0.00 in0.0 mm 0.00 in0.0 mm 0.00 in0.0 mm
04:32 AM 30.8°F-0.7°C 27.1°F-2.7°C 86% 8.0 mph NNW12.9 kmh NNW 14.0 mph22.5 kmh 30.39 in1029.1 mb 0.00 in0.0 mm 0.00 in0.0 mm 0.00 in0.0 mm
04:34 AM 30.8°F-0.7°C 27.1°F-2.7°C 86% 8.0 mph NNW12.9 kmh NNW 14.0 mph22.5 kmh 30.40 in1029.5 mb 0.00 in0.0 mm 0.00 in0.0 mm 0.00 in0.0 mm
04:36 AM 30.8°F-0.7°C 27.1°F-2.7°C 86% 8.0 mph NNW12.9 kmh NNW 13.0 mph20.9 kmh 30.40 in1029.5 mb 0.00 in0.0 mm 0.00 in0.0 mm 0.00 in0.0 mm
04:38 AM 30.7°F-0.7°C 27.0°F-2.8°C 86% 8.0 mph NNW12.9 kmh NNW 13.0 mph20.9 kmh 30.40 in1029.5 mb 0.00 in0.0 mm 0.00 in0.0 mm 0.00 in0.0 mm
04:40 AM 30.8°F-0.7°C 26.8°F-2.9°C 85% 7.0 mph NNW11.3 kmh NNW 13.0 mph20.9 kmh 30.40 in1029.5 mb 0.00 in0.0 mm 0.00 in0.0 mm 0.00 in0.0 mm
04:42 AM 30.8°F-0.7°C 26.8°F-2.9°C 85% 7.0 mph NNW11.3 kmh NNW 13.0 mph20.9 kmh 30.40 in1029.5 mb 0.00 in0.0 mm 0.00 in0.0 mm 0.00 in0.0 mm
04:44 AM 30.8°F-0.7°C 26.8°F-2.9°C 85% 7.0 mph NNW11.3 kmh NNW 13.0 mph20.9 kmh 30.41 in1029.8 mb 0.00 in0.0 mm 0.00 in0.0 mm 0.00 in0.0 mm
04:46 AM 30.8°F-0.7°C 26.8°F-2.9°C 85% 7.0 mph NNW11.3 kmh NNW 13.0 mph20.9 kmh 30.41 in1029.8 mb 0.00 in0.0 mm 0.00 in0.0 mm 0.00 in0.0 mm
04:48 AM 30.8°F-0.7°C 27.1°F-2.7°C 86% 6.0 mph NNW9.7 kmh NNW 13.0 mph20.9 kmh 30.40 in1029.5 mb 0.00 in0.0 mm 0.00 in0.0 mm 0.00 in0.0 mm
04:50 AM 30.8°F-0.7°C 26.8°F-2.9°C 85% 7.0 mph NNW11.3 kmh NNW 14.0 mph22.5 kmh 30.40 in1029.5 mb 0.00 in0.0 mm 0.00 in0.0 mm 0.00 in0.0 mm
04:52 AM 30.8°F-0.7°C 26.8°F-2.9°C 85% 7.0 mph NNW11.3 kmh NNW 14.0 mph22.5 kmh 30.40 in1029.5 mb 0.00 in0.0 mm 0.00 in0.0 mm 0.00 in0.0 mm
04:54 AM 30.7°F-0.7°C 26.7°F-2.9°C 85% 7.0 mph NNW11.3 kmh NNW 14.0 mph22.5 kmh 30.40 in1029.5 mb 0.00 in0.0 mm 0.00 in0.0 mm 0.00 in0.0 mm
04:56 AM 30.8°F-0.7°C 26.8°F-2.9°C 85% 6.0 mph NNW9.7 kmh NNW 14.0 mph22.5 kmh 30.40 in1029.5 mb 0.00 in0.0 mm 0.00 in0.0 mm 0.00 in0.0 mm
04:58 AM 30.8°F-0.7°C 26.8°F-2.9°C 85% 7.0 mph NNW11.3 kmh NNW 14.0 mph22.5 kmh 30.40 in1029.5 mb 0.00 in0.0 mm 0.00 in0.0 mm 0.00 in0.0 mm
05:00 AM 30.8°F-0.7°C 26.8°F-2.9°C 85% 6.0 mph NNW9.7 kmh NNW 13.0 mph20.9 kmh 30.40 in1029.5 mb 0.00 in0.0 mm 0.00 in0.0 mm 0.00 in0.0 mm
05:02 AM 30.8°F-0.7°C 26.8°F-2.9°C 85% 6.0 mph NNW9.7 kmh NNW 12.0 mph19.3 kmh 30.41 in1029.8 mb 0.00 in0.0 mm 0.00 in0.0 mm 0.00 in0.0 mm
05:04 AM 30.8°F-0.7°C 26.8°F-2.9°C 85% 6.0 mph NNW9.7 kmh NNW 13.0 mph20.9 kmh 30.41 in1029.8 mb 0.00 in0.0 mm 0.00 in0.0 mm 0.00 in0.0 mm
05:06 AM 30.8°F-0.7°C 26.8°F-2.9°C 85% 6.0 mph NNW9.7 kmh NNW 13.0 mph20.9 kmh 30.41 in1029.8 mb 0.00 in0.0 mm 0.00 in0.0 mm 0.00 in0.0 mm
05:08 AM 30.8°F-0.7°C 27.1°F-2.7°C 86% 5.0 mph NNW8.0 kmh NNW 13.0 mph20.9 kmh 30.41 in1029.8 mb 0.00 in0.0 mm 0.00 in0.0 mm 0.00 in0.0 mm
05:10 AM 30.8°F-0.7°C 26.8°F-2.9°C 85% 6.0 mph NNW9.7 kmh NNW 13.0 mph20.9 kmh 30.41 in1029.8 mb 0.00 in0.0 mm 0.00 in0.0 mm 0.00 in0.0 mm
05:12 AM 30.7°F-0.7°C 26.7°F-2.9°C 85% 6.0 mph NNW9.7 kmh NNW 13.0 mph20.9 kmh 30.41 in1029.8 mb 0.00 in0.0 mm 0.00 in0.0 mm 0.00 in0.0 mm
05:14 AM 30.7°F-0.7°C 26.7°F-2.9°C 85% 6.0 mph NNW9.7 kmh NNW 12.0 mph19.3 kmh 30.40 in1029.5 mb 0.00 in0.0 mm 0.00 in0.0 mm 0.00 in0.0 mm
05:16 AM 30.7°F-0.7°C 26.7°F-2.9°C 85% 7.0 mph NNW11.3 kmh NNW 12.0 mph19.3 kmh 30.40 in1029.5 mb 0.00 in0.0 mm 0.00 in0.0 mm 0.00 in0.0 mm
05:18 AM 30.7°F-0.7°C 26.7°F-2.9°C 85% 7.0 mph NNW11.3 kmh NNW 12.0 mph19.3 kmh 30.40 in1029.5 mb 0.00 in0.0 mm 0.00 in0.0 mm 0.00 in0.0 mm
05:20 AM 30.7°F-0.7°C 26.7°F-2.9°C 85% 7.0 mph NNW11.3 kmh NNW 12.0 mph19.3 kmh 30.40 in1029.5 mb 0.00 in0.0 mm 0.00 in0.0 mm 0.00 in0.0 mm
05:22 AM 30.7°F-0.7°C 26.7°F-2.9°C 85% 7.0 mph NNW11.3 kmh NNW 12.0 mph19.3 kmh 30.40 in1029.5 mb 0.00 in0.0 mm 0.00 in0.0 mm 0.00 in0.0 mm
05:24 AM 30.7°F-0.7°C 26.7°F-2.9°C 85% 7.0 mph NNW11.3 kmh NNW 12.0 mph19.3 kmh 30.40 in1029.5 mb 0.00 in0.0 mm 0.00 in0.0 mm 0.00 in0.0 mm
05:26 AM 30.7°F-0.7°C 26.7°F-2.9°C 85% 7.0 mph NNW11.3 kmh NNW 12.0 mph19.3 kmh 30.40 in1029.5 mb 0.00 in0.0 mm 0.00 in0.0 mm 0.00 in0.0 mm
05:28 AM 30.7°F-0.7°C 26.7°F-2.9°C 85% 6.0 mph NNW9.7 kmh NNW 12.0 mph19.3 kmh 30.40 in1029.5 mb 0.00 in0.0 mm 0.00 in0.0 mm 0.00 in0.0 mm
05:30 AM 30.7°F-0.7°C 26.7°F-2.9°C 85% 6.0 mph NNW9.7 kmh NNW 12.0 mph19.3 kmh 30.41 in1029.8 mb 0.00 in0.0 mm 0.00 in0.0 mm 0.00 in0.0 mm
05:32 AM 30.7°F-0.7°C 26.7°F-2.9°C 85% 6.0 mph NNW9.7 kmh NNW 11.0 mph17.7 kmh 30.41 in1029.8 mb 0.00 in0.0 mm 0.00 in0.0 mm 0.00 in0.0 mm
05:34 AM 30.7°F-0.7°C 26.7°F-2.9°C 85% 6.0 mph NNW9.7 kmh NNW 12.0 mph19.3 kmh 30.41 in1029.8 mb 0.00 in0.0 mm 0.00 in0.0 mm 0.00 in0.0 mm
05:36 AM 30.7°F-0.7°C 26.7°F-2.9°C 85% 6.0 mph NNW9.7 kmh NNW 12.0 mph19.3 kmh 30.41 in1029.8 mb 0.00 in0.0 mm 0.00 in0.0 mm 0.00 in0.0 mm
05:38 AM 30.6°F-0.8°C 26.6°F-3.0°C 85% 6.0 mph NNW9.7 kmh NNW 12.0 mph19.3 kmh 30.41 in1029.8 mb 0.00 in0.0 mm 0.00 in0.0 mm 0.00 in0.0 mm
05:40 AM 30.6°F-0.8°C 26.3°F-3.2°C 84% 6.0 mph NNW9.7 kmh NNW 13.0 mph20.9 kmh 30.40 in1029.5 mb 0.00 in0.0 mm 0.00 in0.0 mm 0.00 in0.0 mm
05:42 AM 30.6°F-0.8°C 26.3°F-3.2°C 84% 7.0 mph NNW11.3 kmh NNW 13.0 mph20.9 kmh 30.40 in1029.5 mb 0.00 in0.0 mm 0.00 in0.0 mm 0.00 in0.0 mm
05:44 AM 30.6°F-0.8°C 26.6°F-3.0°C 85% 7.0 mph NNW11.3 kmh NNW 13.0 mph20.9 kmh 30.40 in1029.5 mb 0.00 in0.0 mm 0.00 in0.0 mm 0.00 in0.0 mm
05:46 AM 30.6°F-0.8°C 26.3°F-3.2°C 84% 7.0 mph NNW11.3 kmh NNW 13.0 mph20.9 kmh 30.40 in1029.5 mb 0.00 in0.0 mm 0.00 in0.0 mm 0.00 in0.0 mm
05:48 AM 30.6°F-0.8°C 26.6°F-3.0°C 85% 7.0 mph NNW11.3 kmh NNW 13.0 mph20.9 kmh 30.41 in1029.8 mb 0.00 in0.0 mm 0.00 in0.0 mm 0.00 in0.0 mm
05:50 AM 30.6°F-0.8°C 26.6°F-3.0°C 85% 6.0 mph NNW9.7 kmh NNW 13.0 mph20.9 kmh 30.41 in1029.8 mb 0.00 in0.0 mm 0.00 in0.0 mm 0.00 in0.0 mm
05:52 AM 30.6°F-0.8°C 26.6°F-3.0°C 85% 6.0 mph NNW9.7 kmh NNW 13.0 mph20.9 kmh 30.41 in1029.8 mb 0.00 in0.0 mm 0.00 in0.0 mm 0.00 in0.0 mm
05:54 AM 30.6°F-0.8°C 26.6°F-3.0°C 85% 6.0 mph NNW9.7 kmh NNW 13.0 mph20.9 kmh 30.42 in1030.1 mb 0.00 in0.0 mm 0.00 in0.0 mm 0.00 in0.0 mm
05:56 AM 30.6°F-0.8°C 26.6°F-3.0°C 85% 5.0 mph NNW8.0 kmh NNW 12.0 mph19.3 kmh 30.42 in1030.1 mb 0.00 in0.0 mm 0.00 in0.0 mm 0.00 in0.0 mm
05:58 AM 30.6°F-0.8°C 26.3°F-3.2°C 84% 6.0 mph NNW9.7 kmh NNW 12.0 mph19.3 kmh 30.42 in1030.1 mb 0.00 in0.0 mm 0.00 in0.0 mm 0.00 in0.0 mm
06:00 AM 30.5°F-0.8°C 26.2°F-3.2°C 84% 6.0 mph NNW9.7 kmh NNW 12.0 mph19.3 kmh 30.42 in1030.1 mb 0.00 in0.0 mm 0.00 in0.0 mm 0.00 in0.0 mm
06:02 AM 30.6°F-0.8°C 26.6°F-3.0°C 85% 6.0 mph NNW9.7 kmh NNW 12.0 mph19.3 kmh 30.42 in1030.1 mb 0.00 in0.0 mm 0.00 in0.0 mm 0.00 in0.0 mm
06:04 AM 30.6°F-0.8°C 26.6°F-3.0°C 85% 6.0 mph NNW9.7 kmh NNW 12.0 mph19.3 kmh 30.42 in1030.1 mb 0.00 in0.0 mm 0.00 in0.0 mm 0.00 in0.0 mm
06:06 AM 30.5°F-0.8°C 26.5°F-3.1°C 85% 6.0 mph NNW9.7 kmh NNW 11.0 mph17.7 kmh 30.42 in1030.1 mb 0.00 in0.0 mm 0.00 in0.0 mm 0.00 in0.0 mm
06:08 AM 30.5°F-0.8°C 26.2°F-3.2°C 84% 6.0 mph NNW9.7 kmh NNW 12.0 mph19.3 kmh 30.42 in1030.1 mb 0.00 in0.0 mm 0.00 in0.0 mm 0.00 in0.0 mm
06:10 AM 30.5°F-0.8°C 26.2°F-3.2°C 84% 6.0 mph NNW9.7 kmh NNW 12.0 mph19.3 kmh 30.42 in1030.1 mb 0.00 in0.0 mm 0.00 in0.0 mm 0.00 in0.0 mm
06:12 AM 30.5°F-0.8°C 26.2°F-3.2°C 84% 7.0 mph NNW11.3 kmh NNW 12.0 mph19.3 kmh 30.42 in1030.1 mb 0.00 in0.0 mm 0.00 in0.0 mm 0.00 in0.0 mm
06:14 AM 30.5°F-0.8°C 26.2°F-3.2°C 84% 6.0 mph NNW9.7 kmh NNW 12.0 mph19.3 kmh 30.42 in1030.1 mb 0.00 in0.0 mm 0.00 in0.0 mm 0.00 in0.0 mm
06:16 AM 30.4°F-0.9°C 26.1°F-3.3°C 84% 6.0 mph NNW9.7 kmh NNW 12.0 mph19.3 kmh 30.42 in1030.1 mb 0.00 in0.0 mm 0.00 in0.0 mm 0.00 in0.0 mm
06:18 AM 30.4°F-0.9°C 26.1°F-3.3°C 84% 6.0 mph NNW9.7 kmh NNW 12.0 mph19.3 kmh 30.42 in1030.1 mb 0.00 in0.0 mm 0.00 in0.0 mm 0.00 in0.0 mm
06:20 AM 30.4°F-0.9°C 26.1°F-3.3°C 84% 6.0 mph NNW9.7 kmh NNW 12.0 mph19.3 kmh 30.41 in1029.8 mb 0.00 in0.0 mm 0.00 in0.0 mm 0.00 in0.0 mm
06:22 AM 30.4°F-0.9°C 26.1°F-3.3°C 84% 6.0 mph NNW9.7 kmh NNW 17.0 mph27.4 kmh 30.41 in1029.8 mb 0.00 in0.0 mm 0.00 in0.0 mm 0.00 in0.0 mm
06:24 AM 30.3°F-0.9°C 25.8°F-3.4°C 83% 7.0 mph NNW11.3 kmh NNW 17.0 mph27.4 kmh 30.41 in1029.8 mb 0.00 in0.0 mm 0.00 in0.0 mm 0.00 in0.0 mm
06:26 AM 30.3°F-0.9°C 26.0°F-3.3°C 84% 7.0 mph NNW11.3 kmh NNW 17.0 mph27.4 kmh 30.42 in1030.1 mb 0.00 in0.0 mm 0.00 in0.0 mm 0.00 in0.0 mm
06:28 AM 30.3°F-0.9°C 26.0°F-3.3°C 84% 7.0 mph NNW11.3 kmh NNW 17.0 mph27.4 kmh 30.42 in1030.1 mb 0.00 in0.0 mm 0.00 in0.0 mm 0.00 in0.0 mm
06:30 AM 30.3°F-0.9°C 26.0°F-3.3°C 84% 7.0 mph NNW11.3 kmh NNW 17.0 mph27.4 kmh 30.42 in1030.1 mb 0.00 in0.0 mm 0.00 in0.0 mm 0.00 in0.0 mm
06:32 AM 30.3°F-0.9°C 26.0°F-3.3°C 84% 6.0 mph NNW9.7 kmh NNW 13.0 mph20.9 kmh 30.42 in1030.1 mb 0.00 in0.0 mm 0.00 in0.0 mm 0.00 in0.0 mm
06:40 AM 30.3°F-0.9°C 26.0°F-3.3°C 84% 5.0 mph NNW8.0 kmh NNW 5.0 mph8.0 kmh 30.42 in1030.1 mb 0.00 in0.0 mm 0.00 in0.0 mm 0.00 in0.0 mm
06:42 AM 30.2°F-1.0°C 25.9°F-3.4°C 84% 5.0 mph NNW8.0 kmh NNW 9.0 mph14.5 kmh 30.42 in1030.1 mb 0.00 in0.0 mm 0.00 in0.0 mm 0.00 in0.0 mm
06:44 AM 30.2°F-1.0°C 25.9°F-3.4°C 84% 5.0 mph NNW8.0 kmh NNW 11.0 mph17.7 kmh 30.42 in1030.1 mb 0.00 in0.0 mm 0.00 in0.0 mm 0.00 in0.0 mm
06:46 AM 30.2°F-1.0°C 25.7°F-3.5°C 83% 6.0 mph NNW9.7 kmh NNW 11.0 mph17.7 kmh 30.42 in1030.1 mb 0.00 in0.0 mm 0.00 in0.0 mm 0.00 in0.0 mm
06:48 AM 30.2°F-1.0°C 25.7°F-3.5°C 83% 6.0 mph NNW9.7 kmh NNW 11.0 mph17.7 kmh 30.42 in1030.1 mb 0.00 in0.0 mm 0.00 in0.0 mm 0.00 in0.0 mm
06:50 AM 30.1°F-1.1°C 25.6°F-3.6°C 83% 6.0 mph NNW9.7 kmh NNW 11.0 mph17.7 kmh 30.42 in1030.1 mb 0.00 in0.0 mm 0.00 in0.0 mm 0.00 in0.0 mm
06:52 AM 30.1°F-1.1°C 25.6°F-3.6°C 83% 6.0 mph NNW9.7 kmh NNW 11.0 mph17.7 kmh 30.42 in1030.1 mb 0.00 in0.0 mm 0.00 in0.0 mm 0.00 in0.0 mm
06:54 AM 30.1°F-1.1°C 25.6°F-3.6°C 83% 6.0 mph NNW9.7 kmh NNW 13.0 mph20.9 kmh 30.43 in1030.5 mb 0.00 in0.0 mm 0.00 in0.0 mm 0.00 in0.0 mm
06:56 AM 30.1°F-1.1°C 25.6°F-3.6°C 83% 6.0 mph NNW9.7 kmh NNW 13.0 mph20.9 kmh 30.43 in1030.5 mb 0.00 in0.0 mm 0.00 in0.0 mm 0.00 in0.0 mm
06:58 AM 30.1°F-1.1°C 25.3°F-3.7°C 82% 6.0 mph NNW9.7 kmh NNW 13.0 mph20.9 kmh 30.43 in1030.5 mb 0.00 in0.0 mm 0.00 in0.0 mm 0.00 in0.0 mm
07:00 AM 30.1°F-1.1°C 25.6°F-3.6°C 83% 5.0 mph NNW8.0 kmh NNW 13.0 mph20.9 kmh 30.43 in1030.5 mb 0.00 in0.0 mm 0.00 in0.0 mm 0.00 in0.0 mm
07:02 AM 30.0°F-1.1°C 25.2°F-3.8°C 82% 5.0 mph NNW8.0 kmh NNW 13.0 mph20.9 kmh 30.43 in1030.5 mb 0.00 in0.0 mm 0.00 in0.0 mm 0.00 in0.0 mm
07:04 AM 30.0°F-1.1°C 25.2°F-3.8°C 82% 5.0 mph NW8.0 kmh NW 10.0 mph16.1 kmh 30.43 in1030.5 mb 0.00 in0.0 mm 0.00 in0.0 mm 0.00 in0.0 mm
07:06 AM 30.0°F-1.1°C 25.2°F-3.8°C 82% 5.0 mph NNW8.0 kmh NNW 12.0 mph19.3 kmh 30.44 in1030.8 mb 0.00 in0.0 mm 0.00 in0.0 mm 0.00 in0.0 mm
07:08 AM 30.0°F-1.1°C 25.2°F-3.8°C 82% 5.0 mph NNW8.0 kmh NNW 12.0 mph19.3 kmh 30.44 in1030.8 mb 0.00 in0.0 mm 0.00 in0.0 mm 0.00 in0.0 mm
07:10 AM 30.0°F-1.1°C 25.2°F-3.8°C 82% 5.0 mph NNW8.0 kmh NNW 12.0 mph19.3 kmh 30.44 in1030.8 mb 0.00 in0.0 mm 0.00 in0.0 mm 0.00 in0.0 mm
07:12 AM 30.0°F-1.1°C 25.2°F-3.8°C 82% 6.0 mph NNW9.7 kmh NNW 16.0 mph25.7 kmh 30.44 in1030.8 mb 0.00 in0.0 mm 0.00 in0.0 mm 0.00 in0.0 mm
07:14 AM 30.0°F-1.1°C 25.2°F-3.8°C 82% 6.0 mph NNW9.7 kmh NNW 16.0 mph25.7 kmh 30.44 in1030.8 mb 0.00 in0.0 mm 0.00 in0.0 mm 0.00 in0.0 mm
07:16 AM 29.9°F-1.2°C 25.1°F-3.8°C 82% 6.0 mph NNW9.7 kmh NNW 16.0 mph25.7 kmh 30.44 in1030.8 mb 0.00 in0.0 mm 0.00 in0.0 mm 0.00 in0.0 mm
07:18 AM 29.9°F-1.2°C 24.8°F-4.0°C 81% 7.0 mph NNW11.3 kmh NNW 16.0 mph25.7 kmh 30.44 in1030.8 mb 0.00 in0.0 mm 0.00 in0.0 mm 0.00 in0.0 mm
07:20 AM 29.9°F-1.2°C 24.8°F-4.0°C 81% 7.0 mph NNW11.3 kmh NNW 16.0 mph25.7 kmh 30.44 in1030.8 mb 0.00 in0.0 mm 0.00 in0.0 mm 0.00 in0.0 mm
07:22 AM 29.9°F-1.2°C 25.1°F-3.8°C 82% 7.0 mph NNW11.3 kmh NNW 16.0 mph25.7 kmh 30.44 in1030.8 mb 0.00 in0.0 mm 0.00 in0.0 mm 0.00 in0.0 mm
07:24 AM 29.8°F-1.2°C 24.7°F-4.1°C 81% 7.0 mph NNW11.3 kmh NNW 16.0 mph25.7 kmh 30.44 in1030.8 mb 0.00 in0.0 mm 0.00 in0.0 mm 0.00 in0.0 mm
07:26 AM 29.8°F-1.2°C 24.7°F-4.1°C 81% 8.0 mph NNW12.9 kmh NNW 16.0 mph25.7 kmh 30.44 in1030.8 mb 0.00 in0.0 mm 0.00 in0.0 mm 0.00 in0.0 mm
07:28 AM 29.9°F-1.2°C 25.1°F-3.8°C 82% 7.0 mph NNW11.3 kmh NNW 16.0 mph25.7 kmh 30.44 in1030.8 mb 0.00 in0.0 mm 0.00 in0.0 mm 0.00 in0.0 mm
07:30 AM 29.9°F-1.2°C 25.1°F-3.8°C 82% 7.0 mph NNW11.3 kmh NNW 16.0 mph25.7 kmh 30.44 in1030.8 mb 0.00 in0.0 mm 0.00 in0.0 mm 0.00 in0.0 mm
07:32 AM 29.9°F-1.2°C 24.8°F-4.0°C 81% 7.0 mph NNW11.3 kmh NNW 16.0 mph25.7 kmh 30.44 in1030.8 mb 0.00 in0.0 mm 0.00 in0.0 mm 0.00 in0.0 mm
07:34 AM 29.9°F-1.2°C 24.8°F-4.0°C 81% 6.0 mph NNW9.7 kmh NNW 14.0 mph22.5 kmh 30.44 in1030.8 mb 0.00 in0.0 mm 0.00 in0.0 mm 0.00 in0.0 mm
07:36 AM 29.9°F-1.2°C 25.1°F-3.8°C 82% 6.0 mph NNW9.7 kmh NNW 14.0 mph22.5 kmh 30.45 in1031.2 mb 0.00 in0.0 mm 0.00 in0.0 mm 0.00 in0.0 mm
07:38 AM 29.9°F-1.2°C 24.8°F-4.0°C 81% 7.0 mph NNW11.3 kmh NNW 14.0 mph22.5 kmh 30.45 in1031.2 mb 0.00 in0.0 mm 0.00 in0.0 mm 0.00 in0.0 mm
07:40 AM 29.8°F-1.2°C 24.7°F-4.1°C 81% 6.0 mph NNW9.7 kmh NNW 14.0 mph22.5 kmh 30.45 in1031.2 mb 0.00 in0.0 mm 0.00 in0.0 mm 0.00 in0.0 mm
07:42 AM 29.8°F-1.2°C 24.7°F-4.1°C 81% 6.0 mph NNW9.7 kmh NNW 14.0 mph22.5 kmh 30.45 in1031.2 mb 0.00 in0.0 mm 0.00 in0.0 mm 0.00 in0.0 mm
07:44 AM 29.8°F-1.2°C 24.7°F-4.1°C 81% 6.0 mph NNW9.7 kmh NNW 12.0 mph19.3 kmh 30.45 in1031.2 mb 0.00 in0.0 mm 0.00 in0.0 mm 0.00 in0.0 mm
07:46 AM 29.8°F-1.2°C 24.7°F-4.1°C 81% 7.0 mph NNW11.3 kmh NNW 13.0 mph20.9 kmh 30.45 in1031.2 mb 0.00 in0.0 mm 0.00 in0.0 mm 0.00 in0.0 mm
07:48 AM 29.7°F-1.3°C 24.6°F-4.1°C 81% 7.0 mph NNW11.3 kmh NNW 13.0 mph20.9 kmh 30.45 in1031.2 mb 0.00 in0.0 mm 0.00 in0.0 mm 0.00 in0.0 mm
07:50 AM 29.7°F-1.3°C 24.6°F-4.1°C 81% 7.0 mph NNW11.3 kmh NNW 14.0 mph22.5 kmh 30.45 in1031.2 mb 0.00 in0.0 mm 0.00 in0.0 mm 0.00 in0.0 mm
07:52 AM 29.6°F-1.3°C 24.2°F-4.3°C 80% 8.0 mph NNW12.9 kmh NNW 14.0 mph22.5 kmh 30.46 in1031.5 mb 0.00 in0.0 mm 0.00 in0.0 mm 0.00 in0.0 mm
07:54 AM 29.6°F-1.3°C 24.5°F-4.2°C 81% 8.0 mph NNW12.9 kmh NNW 14.0 mph22.5 kmh 30.46 in1031.5 mb 0.00 in0.0 mm 0.00 in0.0 mm 0.00 in0.0 mm
07:56 AM 29.7°F-1.3°C 24.6°F-4.1°C 81% 8.0 mph NNW12.9 kmh NNW 14.0 mph22.5 kmh 30.46 in1031.5 mb 0.00 in0.0 mm 0.00 in0.0 mm 0.00 in0.0 mm
07:58 AM 29.7°F-1.3°C 24.6°F-4.1°C 81% 8.0 mph NNW12.9 kmh NNW 14.0 mph22.5 kmh 30.46 in1031.5 mb 0.00 in0.0 mm 0.00 in0.0 mm 0.00 in0.0 mm
08:00 AM 29.7°F-1.3°C 24.3°F-4.3°C 80% 8.0 mph NNW12.9 kmh NNW 13.0 mph20.9 kmh 30.46 in1031.5 mb 0.00 in0.0 mm 0.00 in0.0 mm 0.00 in0.0 mm
08:02 AM 29.6°F-1.3°C 24.2°F-4.3°C 80% 8.0 mph NNW12.9 kmh NNW 13.0 mph20.9 kmh 30.46 in1031.5 mb 0.00 in0.0 mm 0.00 in0.0 mm 0.00 in0.0 mm
08:04 AM 29.6°F-1.3°C 24.2°F-4.3°C 80% 8.0 mph NNW12.9 kmh NNW 17.0 mph27.4 kmh 30.46 in1031.5 mb 0.00 in0.0 mm 0.00 in0.0 mm 0.00 in0.0 mm
08:06 AM 29.5°F-1.4°C 24.1°F-4.4°C 80% 8.0 mph NNW12.9 kmh NNW 17.0 mph27.4 kmh 30.46 in1031.5 mb 0.00 in0.0 mm 0.00 in0.0 mm 0.00 in0.0 mm
08:08 AM 29.5°F-1.4°C 24.1°F-4.4°C 80% 8.0 mph NNW12.9 kmh NNW 17.0 mph27.4 kmh 30.46 in1031.5 mb 0.00 in0.0 mm 0.00 in0.0 mm 0.00 in0.0 mm
08:10 AM 29.5°F-1.4°C 24.1°F-4.4°C 80% 8.0 mph NNW12.9 kmh NNW 17.0 mph27.4 kmh 30.46 in1031.5 mb 0.00 in0.0 mm 0.00 in0.0 mm 0.00 in0.0 mm
08:12 AM 29.5°F-1.4°C 24.1°F-4.4°C 80% 8.0 mph NNW12.9 kmh NNW 17.0 mph27.4 kmh 30.46 in1031.5 mb 0.00 in0.0 mm 0.00 in0.0 mm 0.00 in0.0 mm
08:14 AM 29.5°F-1.4°C 23.8°F-4.6°C 79% 7.0 mph NNW11.3 kmh NNW 13.0 mph20.9 kmh 30.46 in1031.5 mb 0.00 in0.0 mm 0.00 in0.0 mm 0.00 in0.0 mm
08:16 AM 29.4°F-1.4°C 24.0°F-4.4°C 80% 7.0 mph NNW11.3 kmh NNW 13.0 mph20.9 kmh 30.46 in1031.5 mb 0.00 in0.0 mm 0.00 in0.0 mm 0.00 in0.0 mm
08:18 AM 29.5°F-1.4°C 23.8°F-4.6°C 79% 7.0 mph NNW11.3 kmh NNW 13.0 mph20.9 kmh 30.46 in1031.5 mb 0.00 in0.0 mm 0.00 in0.0 mm 0.00 in0.0 mm
08:20 AM 29.4°F-1.4°C 23.7°F-4.6°C 79% 7.0 mph NNW11.3 kmh NNW 13.0 mph20.9 kmh 30.46 in1031.5 mb 0.00 in0.0 mm 0.00 in0.0 mm 0.00 in0.0 mm
08:22 AM 29.4°F-1.4°C 23.4°F-4.8°C 78% 7.0 mph NNW11.3 kmh NNW 13.0 mph20.9 kmh 30.46 in1031.5 mb 0.00 in0.0 mm 0.00 in0.0 mm 0.00 in0.0 mm
08:24 AM 29.4°F-1.4°C 23.4°F-4.8°C 78% 7.0 mph NNW11.3 kmh NNW 15.0 mph24.1 kmh 30.45 in1031.2 mb 0.00 in0.0 mm 0.00 in0.0 mm 0.00 in0.0 mm
08:26 AM 29.3°F-1.5°C 23.0°F-5.0°C 77% 8.0 mph NNW12.9 kmh NNW 16.0 mph25.7 kmh 30.46 in1031.5 mb 0.00 in0.0 mm 0.00 in0.0 mm 0.00 in0.0 mm
08:28 AM 29.3°F-1.5°C 23.3°F-4.8°C 78% 8.0 mph NNW12.9 kmh NNW 16.0 mph25.7 kmh 30.46 in1031.5 mb 0.00 in0.0 mm 0.00 in0.0 mm 0.00 in0.0 mm
08:30 AM 29.4°F-1.4°C 23.7°F-4.6°C 79% 8.0 mph NNW12.9 kmh NNW 16.0 mph25.7 kmh 30.46 in1031.5 mb 0.00 in0.0 mm 0.00 in0.0 mm 0.00 in0.0 mm
08:32 AM 29.4°F-1.4°C 23.4°F-4.8°C 78% 7.0 mph NNW11.3 kmh NNW 16.0 mph25.7 kmh 30.46 in1031.5 mb 0.00 in0.0 mm 0.00 in0.0 mm 0.00 in0.0 mm
08:34 AM 29.4°F-1.4°C 23.1°F-4.9°C 77% 7.0 mph NNW11.3 kmh NNW 16.0 mph25.7 kmh 30.46 in1031.5 mb 0.00 in0.0 mm 0.00 in0.0 mm 0.00 in0.0 mm
08:36 AM 29.4°F-1.4°C 23.1°F-4.9°C 77% 6.0 mph NW9.7 kmh NW 12.0 mph19.3 kmh 30.46 in1031.5 mb 0.00 in0.0 mm 0.00 in0.0 mm 0.00 in0.0 mm
08:38 AM 29.3°F-1.5°C 22.7°F-5.2°C 76% 6.0 mph NW9.7 kmh NW 11.0 mph17.7 kmh 30.46 in1031.5 mb 0.00 in0.0 mm 0.00 in0.0 mm 0.00 in0.0 mm
08:40 AM 29.3°F-1.5°C 22.7°F-5.2°C 76% 6.0 mph NW9.7 kmh NW 11.0 mph17.7 kmh 30.47 in1031.8 mb 0.00 in0.0 mm 0.00 in0.0 mm 0.00 in0.0 mm
08:42 AM 29.2°F-1.6°C 22.6°F-5.2°C 76% 6.0 mph NW9.7 kmh NW 11.0 mph17.7 kmh 30.47 in1031.8 mb 0.00 in0.0 mm 0.00 in0.0 mm 0.00 in0.0 mm
08:44 AM 29.1°F-1.6°C 22.2°F-5.4°C 75% 6.0 mph NW9.7 kmh NW 11.0 mph17.7 kmh 30.47 in1031.8 mb 0.00 in0.0 mm 0.00 in0.0 mm 0.00 in0.0 mm
08:46 AM 29.0°F-1.7°C 21.7°F-5.7°C 74% 6.0 mph NW9.7 kmh NW 11.0 mph17.7 kmh 30.47 in1031.8 mb 0.00 in0.0 mm 0.00 in0.0 mm 0.00 in0.0 mm
08:48 AM 28.9°F-1.7°C 21.7°F-5.7°C 74% 6.0 mph NNW9.7 kmh NNW 11.0 mph17.7 kmh 30.47 in1031.8 mb 0.00 in0.0 mm 0.00 in0.0 mm 0.00 in0.0 mm
08:50 AM 28.8°F-1.8°C 21.6°F-5.8°C 74% 6.0 mph NNW9.7 kmh NNW 11.0 mph17.7 kmh 30.47 in1031.8 mb 0.00 in0.0 mm 0.00 in0.0 mm 0.00 in0.0 mm
08:52 AM 28.8°F-1.8°C 21.6°F-5.8°C 74% 6.0 mph NNW9.7 kmh NNW 11.0 mph17.7 kmh 30.47 in1031.8 mb 0.00 in0.0 mm 0.00 in0.0 mm 0.00 in0.0 mm
08:54 AM 28.8°F-1.8°C 21.2°F-6.0°C 73% 6.0 mph NNW9.7 kmh NNW 11.0 mph17.7 kmh 30.47 in1031.8 mb 0.00 in0.0 mm 0.00 in0.0 mm 0.00 in0.0 mm
08:56 AM 28.8°F-1.8°C 21.2°F-6.0°C 73% 6.0 mph NNW9.7 kmh NNW 11.0 mph17.7 kmh 30.47 in1031.8 mb 0.00 in0.0 mm 0.00 in0.0 mm 0.00 in0.0 mm
08:58 AM 28.8°F-1.8°C 21.2°F-6.0°C 73% 6.0 mph NNW9.7 kmh NNW 13.0 mph20.9 kmh 30.47 in1031.8 mb 0.00 in0.0 mm 0.00 in0.0 mm 0.00 in0.0 mm
09:00 AM 28.8°F-1.8°C 20.9°F-6.2°C 72% 7.0 mph NNW11.3 kmh NNW 13.0 mph20.9 kmh 30.47 in1031.8 mb 0.00 in0.0 mm 0.00 in0.0 mm 0.00 in0.0 mm
09:02 AM 28.9°F-1.7°C 20.7°F-6.3°C 71% 7.0 mph NNW11.3 kmh NNW 13.0 mph20.9 kmh 30.47 in1031.8 mb 0.00 in0.0 mm 0.00 in0.0 mm 0.00 in0.0 mm
09:04 AM 28.9°F-1.7°C 20.3°F-6.5°C 70% 7.0 mph NNW11.3 kmh NNW 13.0 mph20.9 kmh 30.47 in1031.8 mb 0.00 in0.0 mm 0.00 in0.0 mm 0.00 in0.0 mm
09:06 AM 29.0°F-1.7°C 20.4°F-6.4°C 70% 7.0 mph NNW11.3 kmh NNW 16.0 mph25.7 kmh 30.47 in1031.8 mb 0.00 in0.0 mm 0.00 in0.0 mm 0.00 in0.0 mm
09:08 AM 29.0°F-1.7°C 19.8°F-6.8°C 68% 8.0 mph NNW12.9 kmh NNW 16.0 mph25.7 kmh 30.48 in1032.2 mb 0.00 in0.0 mm 0.00 in0.0 mm 0.00 in0.0 mm
09:10 AM 29.0°F-1.7°C 19.8°F-6.8°C 68% 8.0 mph NNW12.9 kmh NNW 16.0 mph25.7 kmh 30.47 in1031.8 mb 0.00 in0.0 mm 0.00 in0.0 mm 0.00 in0.0 mm
09:12 AM 29.0°F-1.7°C 19.8°F-6.8°C 68% 8.0 mph NNW12.9 kmh NNW 16.0 mph25.7 kmh 30.47 in1031.8 mb 0.00 in0.0 mm 0.00 in0.0 mm 0.00 in0.0 mm
09:16 AM 29.2°F-1.6°C 20.6°F-6.3°C 70% 8.0 mph NW12.9 kmh NW 7.0 mph11.3 kmh 30.47 in1031.8 mb 0.00 in0.0 mm 0.00 in0.0 mm 0.00 in0.0 mm
09:18 AM 29.5°F-1.4°C 20.9°F-6.2°C 70% 7.0 mph NW11.3 kmh NW 11.0 mph17.7 kmh 30.47 in1031.8 mb 0.00 in0.0 mm 0.00 in0.0 mm 0.00 in0.0 mm
09:20 AM 29.5°F-1.4°C 20.6°F-6.3°C 69% 7.0 mph NW11.3 kmh NW 11.0 mph17.7 kmh 30.47 in1031.8 mb 0.00 in0.0 mm 0.00 in0.0 mm 0.00 in0.0 mm
09:22 AM 29.6°F-1.3°C 20.7°F-6.3°C 69% 7.0 mph NW11.3 kmh NW 11.0 mph17.7 kmh 30.48 in1032.2 mb 0.00 in0.0 mm 0.00 in0.0 mm 0.00 in0.0 mm
09:24 AM 29.7°F-1.3°C 20.8°F-6.2°C 69% 6.0 mph NW9.7 kmh NW 11.0 mph17.7 kmh 30.47 in1031.8 mb 0.00 in0.0 mm 0.00 in0.0 mm 0.00 in0.0 mm
09:26 AM 29.8°F-1.2°C 20.9°F-6.2°C 69% 7.0 mph NW11.3 kmh NW 12.0 mph19.3 kmh 30.47 in1031.8 mb 0.00 in0.0 mm 0.00 in0.0 mm 0.00 in0.0 mm
09:28 AM 29.8°F-1.2°C 20.2°F-6.6°C 67% 7.0 mph NNW11.3 kmh NNW 12.0 mph19.3 kmh 30.48 in1032.2 mb 0.00 in0.0 mm 0.00 in0.0 mm 0.00 in0.0 mm
09:30 AM 29.7°F-1.3°C 19.7°F-6.8°C 66% 7.0 mph NNW11.3 kmh NNW 15.0 mph24.1 kmh 30.48 in1032.2 mb 0.00 in0.0 mm 0.00 in0.0 mm 0.00 in0.0 mm
09:32 AM 29.7°F-1.3°C 19.7°F-6.8°C 66% 7.0 mph NNW11.3 kmh NNW 15.0 mph24.1 kmh 30.48 in1032.2 mb 0.00 in0.0 mm 0.00 in0.0 mm 0.00 in0.0 mm
09:34 AM 29.6°F-1.3°C 19.3°F-7.1°C 65% 8.0 mph NNW12.9 kmh NNW 15.0 mph24.1 kmh 30.48 in1032.2 mb 0.00 in0.0 mm 0.00 in0.0 mm 0.00 in0.0 mm
09:36 AM 29.6°F-1.3°C 19.3°F-7.1°C 65% 8.0 mph NNW12.9 kmh NNW 15.0 mph24.1 kmh 30.48 in1032.2 mb 0.00 in0.0 mm 0.00 in0.0 mm 0.00 in0.0 mm
09:38 AM 29.4°F-1.4°C 18.7°F-7.4°C 64% 8.0 mph NNW12.9 kmh NNW 15.0 mph24.1 kmh 30.48 in1032.2 mb 0.00 in0.0 mm 0.00 in0.0 mm 0.00 in0.0 mm
09:40 AM 29.3°F-1.5°C 19.0°F-7.2°C 65% 8.0 mph NNW12.9 kmh NNW 13.0 mph20.9 kmh 30.48 in1032.2 mb 0.00 in0.0 mm 0.00 in0.0 mm 0.00 in0.0 mm
09:42 AM 29.4°F-1.4°C 19.4°F-7.0°C 66% 7.0 mph NNW11.3 kmh NNW 13.0 mph20.9 kmh 30.48 in1032.2 mb 0.00 in0.0 mm 0.00 in0.0 mm 0.00 in0.0 mm
09:44 AM 29.5°F-1.4°C 19.5°F-6.9°C 66% 7.0 mph NNW11.3 kmh NNW 13.0 mph20.9 kmh 30.48 in1032.2 mb 0.00 in0.0 mm 0.00 in0.0 mm 0.00 in0.0 mm
09:46 AM 29.5°F-1.4°C 18.8°F-7.3°C 64% 7.0 mph NNW11.3 kmh NNW 13.0 mph20.9 kmh 30.48 in1032.2 mb 0.00 in0.0 mm 0.00 in0.0 mm 0.00 in0.0 mm
09:48 AM 29.4°F-1.4°C 18.7°F-7.4°C 64% 6.0 mph NNW9.7 kmh NNW 12.0 mph19.3 kmh 30.48 in1032.2 mb 0.00 in0.0 mm 0.00 in0.0 mm 0.00 in0.0 mm
09:50 AM 29.3°F-1.5°C 18.3°F-7.6°C 63% 6.0 mph NNW9.7 kmh NNW 15.0 mph24.1 kmh 30.48 in1032.2 mb 0.00 in0.0 mm 0.00 in0.0 mm 0.00 in0.0 mm
09:52 AM 29.2°F-1.6°C 17.8°F-7.9°C 62% 7.0 mph NNW11.3 kmh NNW 15.0 mph24.1 kmh 30.48 in1032.2 mb 0.00 in0.0 mm 0.00 in0.0 mm 0.00 in0.0 mm
09:54 AM 29.2°F-1.6°C 18.5°F-7.5°C 64% 7.0 mph NNW11.3 kmh NNW 15.0 mph24.1 kmh 30.48 in1032.2 mb 0.00 in0.0 mm 0.00 in0.0 mm 0.00 in0.0 mm
09:56 AM 29.4°F-1.4°C 19.4°F-7.0°C 66% 7.0 mph NNW11.3 kmh NNW 15.0 mph24.1 kmh 30.48 in1032.2 mb 0.00 in0.0 mm 0.00 in0.0 mm 0.00 in0.0 mm
09:58 AM 29.5°F-1.4°C 19.2°F-7.1°C 65% 7.0 mph NNW11.3 kmh NNW 15.0 mph24.1 kmh 30.48 in1032.2 mb 0.00 in0.0 mm 0.00 in0.0 mm 0.00 in0.0 mm
10:00 AM 29.6°F-1.3°C 19.6°F-6.9°C 66% 7.0 mph NNW11.3 kmh NNW 14.0 mph22.5 kmh 30.48 in1032.2 mb 0.00 in0.0 mm 0.00 in0.0 mm 0.00 in0.0 mm
10:02 AM 29.7°F-1.3°C 19.4°F-7.0°C 65% 6.0 mph NNW9.7 kmh NNW 14.0 mph22.5 kmh 30.48 in1032.2 mb 0.00 in0.0 mm 0.00 in0.0 mm 0.00 in0.0 mm
10:04 AM 29.8°F-1.2°C 19.5°F-6.9°C 65% 6.0 mph NNW9.7 kmh NNW 14.0 mph22.5 kmh 30.48 in1032.2 mb 0.00 in0.0 mm 0.00 in0.0 mm 0.00 in0.0 mm
10:06 AM 29.9°F-1.2°C 19.6°F-6.9°C 65% 6.0 mph NW9.7 kmh NW 14.0 mph22.5 kmh 30.48 in1032.2 mb 0.00 in0.0 mm 0.00 in0.0 mm 0.00 in0.0 mm
10:08 AM 30.0°F-1.1°C 19.3°F-7.1°C 64% 6.0 mph NW9.7 kmh NW 11.0 mph17.7 kmh 30.49 in1032.5 mb 0.00 in0.0 mm 0.00 in0.0 mm 0.00 in0.0 mm
10:10 AM 30.3°F-0.9°C 20.3°F-6.5°C 66% 5.0 mph NW8.0 kmh NW 15.0 mph24.1 kmh 30.48 in1032.2 mb 0.00 in0.0 mm 0.00 in0.0 mm 0.00 in0.0 mm
10:12 AM 30.5°F-0.8°C 19.4°F-7.0°C 63% 6.0 mph NNW9.7 kmh NNW 16.0 mph25.7 kmh 30.49 in1032.5 mb 0.00 in0.0 mm 0.00 in0.0 mm 0.00 in0.0 mm
10:14 AM 30.5°F-0.8°C 18.6°F-7.4°C 61% 7.0 mph NNW11.3 kmh NNW 16.0 mph25.7 kmh 30.49 in1032.5 mb 0.00 in0.0 mm 0.00 in0.0 mm 0.00 in0.0 mm
10:16 AM 30.3°F-0.9°C 17.7°F-7.9°C 59% 8.0 mph NNW12.9 kmh NNW 16.0 mph25.7 kmh 30.49 in1032.5 mb 0.00 in0.0 mm 0.00 in0.0 mm 0.00 in0.0 mm
10:18 AM 30.3°F-0.9°C 18.5°F-7.5°C 61% 8.0 mph NNW12.9 kmh NNW 16.0 mph25.7 kmh 30.49 in1032.5 mb 0.00 in0.0 mm 0.00 in0.0 mm 0.00 in0.0 mm
10:20 AM 30.3°F-0.9°C 18.5°F-7.5°C 61% 8.0 mph NNW12.9 kmh NNW 16.0 mph25.7 kmh 30.49 in1032.5 mb 0.00 in0.0 mm 0.00 in0.0 mm 0.00 in0.0 mm
10:22 AM 30.8°F-0.7°C 19.3°F-7.1°C 62% 9.0 mph NNW14.5 kmh NNW 16.0 mph25.7 kmh 30.49 in1032.5 mb 0.00 in0.0 mm 0.00 in0.0 mm 0.00 in0.0 mm
10:24 AM 31.3°F-0.4°C 19.8°F-6.8°C 62% 8.0 mph NW12.9 kmh NW 16.0 mph25.7 kmh 30.49 in1032.5 mb 0.00 in0.0 mm 0.00 in0.0 mm 0.00 in0.0 mm
10:26 AM 31.7°F-0.2°C 19.8°F-6.8°C 61% 7.0 mph NW11.3 kmh NW 14.0 mph22.5 kmh 30.48 in1032.2 mb 0.00 in0.0 mm 0.00 in0.0 mm 0.00 in0.0 mm
10:28 AM 32.2°F0.1°C 20.2°F-6.6°C 61% 7.0 mph NW11.3 kmh NW 14.0 mph22.5 kmh 30.49 in1032.5 mb 0.00 in0.0 mm 0.00 in0.0 mm 0.00 in0.0 mm
10:30 AM 32.7°F0.4°C 20.3°F-6.5°C 60% 6.0 mph NW9.7 kmh NW 14.0 mph22.5 kmh 30.49 in1032.5 mb 0.00 in0.0 mm 0.00 in0.0 mm 0.00 in0.0 mm
10:32 AM 33.0°F0.6°C 20.2°F-6.6°C 59% 6.0 mph NW9.7 kmh NW 11.0 mph17.7 kmh 30.49 in1032.5 mb 0.00 in0.0 mm 0.00 in0.0 mm 0.00 in0.0 mm
10:34 AM 33.2°F0.7°C 20.4°F-6.4°C 59% 6.0 mph NW9.7 kmh NW 11.0 mph17.7 kmh 30.48 in1032.2 mb 0.00 in0.0 mm 0.00 in0.0 mm 0.00 in0.0 mm
10:36 AM 33.4°F0.8°C 20.2°F-6.6°C 58% 5.0 mph NW8.0 kmh NW 11.0 mph17.7 kmh 30.48 in1032.2 mb 0.00 in0.0 mm 0.00 in0.0 mm 0.00 in0.0 mm
10:38 AM 33.6°F0.9°C 20.4°F-6.4°C 58% 6.0 mph NW9.7 kmh NW 11.0 mph17.7 kmh 30.48 in1032.2 mb 0.00 in0.0 mm 0.00 in0.0 mm 0.00 in0.0 mm
10:40 AM 33.7°F0.9°C 20.5°F-6.4°C 58% 6.0 mph NW9.7 kmh NW 13.0 mph20.9 kmh 30.48 in1032.2 mb 0.00 in0.0 mm 0.00 in0.0 mm 0.00 in0.0 mm
10:42 AM 33.7°F0.9°C 20.1°F-6.6°C 57% 6.0 mph NW9.7 kmh NW 13.0 mph20.9 kmh 30.48 in1032.2 mb 0.00 in0.0 mm 0.00 in0.0 mm 0.00 in0.0 mm
10:44 AM 33.4°F0.8°C 19.4°F-7.0°C 56% 6.0 mph NW9.7 kmh NW 13.0 mph20.9 kmh 30.48 in1032.2 mb 0.00 in0.0 mm 0.00 in0.0 mm 0.00 in0.0 mm
10:46 AM 33.0°F0.6°C 19.0°F-7.2°C 56% 6.0 mph NW9.7 kmh NW 13.0 mph20.9 kmh 30.48 in1032.2 mb 0.00 in0.0 mm 0.00 in0.0 mm 0.00 in0.0 mm
10:48 AM 32.7°F0.4°C 19.1°F-7.2°C 57% 6.0 mph NW9.7 kmh NW 13.0 mph20.9 kmh 30.48 in1032.2 mb 0.00 in0.0 mm 0.00 in0.0 mm 0.00 in0.0 mm
10:50 AM 32.3°F0.2°C 18.8°F-7.3°C 57% 6.0 mph NW9.7 kmh NW 13.0 mph20.9 kmh 30.48 in1032.2 mb 0.00 in0.0 mm 0.00 in0.0 mm 0.00 in0.0 mm
10:52 AM 32.0°F0.0°C 18.5°F-7.5°C 57% 6.0 mph NNW9.7 kmh NNW 16.0 mph25.7 kmh 30.48 in1032.2 mb 0.00 in0.0 mm 0.00 in0.0 mm 0.00 in0.0 mm
10:54 AM 31.7°F-0.2°C 19.0°F-7.2°C 59% 6.0 mph NNW9.7 kmh NNW 16.0 mph25.7 kmh 30.48 in1032.2 mb 0.00 in0.0 mm 0.00 in0.0 mm 0.00 in0.0 mm
10:56 AM 31.9°F-0.1°C 19.6°F-6.9°C 60% 7.0 mph NW11.3 kmh NW 16.0 mph25.7 kmh 30.48 in1032.2 mb 0.00 in0.0 mm 0.00 in0.0 mm 0.00 in0.0 mm
10:58 AM 32.2°F0.1°C 19.9°F-6.7°C 60% 7.0 mph NW11.3 kmh NW 16.0 mph25.7 kmh 30.48 in1032.2 mb 0.00 in0.0 mm 0.00 in0.0 mm 0.00 in0.0 mm
11:00 AM 32.5°F0.3°C 20.1°F-6.6°C 60% 7.0 mph NW11.3 kmh NW 16.0 mph25.7 kmh 30.48 in1032.2 mb 0.00 in0.0 mm 0.00 in0.0 mm 0.00 in0.0 mm
11:02 AM 32.5°F0.3°C 19.3°F-7.1°C 58% 7.0 mph NW11.3 kmh NW 13.0 mph20.9 kmh 30.47 in1031.8 mb 0.00 in0.0 mm 0.00 in0.0 mm 0.00 in0.0 mm
11:04 AM 32.6°F0.3°C 19.4°F-7.0°C 58% 7.0 mph NW11.3 kmh NW 13.0 mph20.9 kmh 30.47 in1031.8 mb 0.00 in0.0 mm 0.00 in0.0 mm 0.00 in0.0 mm
11:06 AM 32.7°F0.4°C 19.1°F-7.2°C 57% 7.0 mph NW11.3 kmh NW 13.0 mph20.9 kmh 30.47 in1031.8 mb 0.00 in0.0 mm 0.00 in0.0 mm 0.00 in0.0 mm
11:08 AM 32.9°F0.5°C 19.7°F-6.8°C 58% 7.0 mph NW11.3 kmh NW 13.0 mph20.9 kmh 30.47 in1031.8 mb 0.00 in0.0 mm 0.00 in0.0 mm 0.00 in0.0 mm
11:10 AM 33.2°F0.7°C 20.4°F-6.4°C 59% 7.0 mph NW11.3 kmh NW 12.0 mph19.3 kmh 30.48 in1032.2 mb 0.00 in0.0 mm 0.00 in0.0 mm 0.00 in0.0 mm
11:12 AM 33.5°F0.8°C 20.3°F-6.5°C 58% 6.0 mph NW9.7 kmh NW 12.0 mph19.3 kmh 30.47 in1031.8 mb 0.00 in0.0 mm 0.00 in0.0 mm 0.00 in0.0 mm
11:14 AM 33.7°F0.9°C 19.7°F-6.8°C 56% 6.0 mph NW9.7 kmh NW 12.0 mph19.3 kmh 30.47 in1031.8 mb 0.00 in0.0 mm 0.00 in0.0 mm 0.00 in0.0 mm
11:16 AM 33.7°F0.9°C 19.2°F-7.1°C 55% 6.0 mph NW9.7 kmh NW 12.0 mph19.3 kmh 30.46 in1031.5 mb 0.00 in0.0 mm 0.00 in0.0 mm 0.00 in0.0 mm
11:18 AM 33.6°F0.9°C 19.1°F-7.2°C 55% 5.0 mph NW8.0 kmh NW 12.0 mph19.3 kmh 30.46 in1031.5 mb 0.00 in0.0 mm 0.00 in0.0 mm 0.00 in0.0 mm
11:20 AM 33.5°F0.8°C 19.5°F-6.9°C 56% 6.0 mph NW9.7 kmh NW 13.0 mph20.9 kmh 30.46 in1031.5 mb 0.00 in0.0 mm 0.00 in0.0 mm 0.00 in0.0 mm
11:22 AM 33.4°F0.8°C 19.8°F-6.8°C 57% 6.0 mph NW9.7 kmh NW 13.0 mph20.9 kmh 30.46 in1031.5 mb 0.00 in0.0 mm 0.00 in0.0 mm 0.00 in0.0 mm
11:24 AM 33.2°F0.7°C 18.3°F-7.6°C 54% 6.0 mph NNW9.7 kmh NNW 13.0 mph20.9 kmh 30.46 in1031.5 mb 0.00 in0.0 mm 0.00 in0.0 mm 0.00 in0.0 mm
11:26 AM 33.1°F0.6°C 19.1°F-7.2°C 56% 6.0 mph NNW9.7 kmh NNW 13.0 mph20.9 kmh 30.46 in1031.5 mb 0.00 in0.0 mm 0.00 in0.0 mm 0.00 in0.0 mm
11:28 AM 33.0°F0.6°C 19.0°F-7.2°C 56% 6.0 mph NNW9.7 kmh NNW 13.0 mph20.9 kmh 30.46 in1031.5 mb 0.00 in0.0 mm 0.00 in0.0 mm 0.00 in0.0 mm
11:30 AM 32.9°F0.5°C 18.5°F-7.5°C 55% 6.0 mph NNW9.7 kmh NNW 13.0 mph20.9 kmh 30.46 in1031.5 mb 0.00 in0.0 mm 0.00 in0.0 mm 0.00 in0.0 mm
11:32 AM 32.9°F0.5°C 18.5°F-7.5°C 55% 7.0 mph NNW11.3 kmh NNW 13.0 mph20.9 kmh 30.46 in1031.5 mb 0.00 in0.0 mm 0.00 in0.0 mm 0.00 in0.0 mm
11:34 AM 32.8°F0.4°C 19.2°F-7.1°C 57% 6.0 mph NW9.7 kmh NW 14.0 mph22.5 kmh 30.45 in1031.2 mb 0.00 in0.0 mm 0.00 in0.0 mm 0.00 in0.0 mm
11:36 AM 33.0°F0.6°C 19.4°F-7.0°C 57% 6.0 mph NW9.7 kmh NW 14.0 mph22.5 kmh 30.45 in1031.2 mb 0.00 in0.0 mm 0.00 in0.0 mm 0.00 in0.0 mm
11:38 AM 33.1°F0.6°C 18.7°F-7.4°C 55% 6.0 mph NW9.7 kmh NW 14.0 mph22.5 kmh 30.45 in1031.2 mb 0.00 in0.0 mm 0.00 in0.0 mm 0.00 in0.0 mm
11:40 AM 33.3°F0.7°C 18.9°F-7.3°C 55% 6.0 mph NW9.7 kmh NW 14.0 mph22.5 kmh 30.45 in1031.2 mb 0.00 in0.0 mm 0.00 in0.0 mm 0.00 in0.0 mm
11:42 AM 33.4°F0.8°C 19.4°F-7.0°C 56% 6.0 mph NW9.7 kmh NW 14.0 mph22.5 kmh 30.45 in1031.2 mb 0.00 in0.0 mm 0.00 in0.0 mm 0.00 in0.0 mm
11:44 AM 33.6°F0.9°C 19.1°F-7.2°C 55% 6.0 mph NW9.7 kmh NW 11.0 mph17.7 kmh 30.45 in1031.2 mb 0.00 in0.0 mm 0.00 in0.0 mm 0.00 in0.0 mm
11:46 AM 33.7°F0.9°C 19.2°F-7.1°C 55% 6.0 mph NW9.7 kmh NW 12.0 mph19.3 kmh 30.45 in1031.2 mb 0.00 in0.0 mm 0.00 in0.0 mm 0.00 in0.0 mm
11:48 AM 33.8°F1.0°C 20.2°F-6.6°C 57% 6.0 mph NW9.7 kmh NW 13.0 mph20.9 kmh 30.45 in1031.2 mb 0.00 in0.0 mm 0.00 in0.0 mm 0.00 in0.0 mm
11:50 AM 34.0°F1.1°C 19.5°F-6.9°C 55% 6.0 mph NW9.7 kmh NW 13.0 mph20.9 kmh 30.45 in1031.2 mb 0.00 in0.0 mm 0.00 in0.0 mm 0.00 in0.0 mm
11:52 AM 34.1°F1.2°C 19.2°F-7.1°C 54% 6.0 mph NW9.7 kmh NW 13.0 mph20.9 kmh 30.45 in1031.2 mb 0.00 in0.0 mm 0.00 in0.0 mm 0.00 in0.0 mm
11:54 AM 34.1°F1.2°C 18.7°F-7.4°C 53% 6.0 mph NW9.7 kmh NW 13.0 mph20.9 kmh 30.45 in1031.2 mb 0.00 in0.0 mm 0.00 in0.0 mm 0.00 in0.0 mm
11:56 AM 34.2°F1.2°C 18.8°F-7.3°C 53% 6.0 mph NW9.7 kmh NW 13.0 mph20.9 kmh 30.45 in1031.2 mb 0.00 in0.0 mm 0.00 in0.0 mm 0.00 in0.0 mm
11:58 AM 34.1°F1.2°C 17.4°F-8.1°C 50% 6.0 mph NW9.7 kmh NW 12.0 mph19.3 kmh 30.44 in1030.8 mb 0.00 in0.0 mm 0.00 in0.0 mm 0.00 in0.0 mm
12:00 PM 34.1°F1.2°C 17.8°F-7.9°C 51% 6.0 mph NW9.7 kmh NW 12.0 mph19.3 kmh 30.44 in1030.8 mb 0.00 in0.0 mm 0.00 in0.0 mm 0.00 in0.0 mm
12:02 PM 34.1°F1.2°C 17.8°F-7.9°C 51% 6.0 mph NW9.7 kmh NW 12.0 mph19.3 kmh 30.44 in1030.8 mb 0.00 in0.0 mm 0.00 in0.0 mm 0.00 in0.0 mm
12:04 PM 34.1°F1.2°C 17.8°F-7.9°C 51% 6.0 mph NW9.7 kmh NW 12.0 mph19.3 kmh 30.44 in1030.8 mb 0.00 in0.0 mm 0.00 in0.0 mm 0.00 in0.0 mm
12:06 PM 34.0°F1.1°C 18.2°F-7.7°C 52% 7.0 mph NW11.3 kmh NW 14.0 mph22.5 kmh 30.44 in1030.8 mb 0.00 in0.0 mm 0.00 in0.0 mm 0.00 in0.0 mm
12:08 PM 33.9°F1.1°C 17.2°F-8.2°C 50% 7.0 mph NNW11.3 kmh NNW 14.0 mph22.5 kmh 30.44 in1030.8 mb 0.00 in0.0 mm 0.00 in0.0 mm 0.00 in0.0 mm
12:10 PM 33.7°F0.9°C 17.9°F-7.8°C 52% 7.0 mph NNW11.3 kmh NNW 16.0 mph25.7 kmh 30.44 in1030.8 mb 0.00 in0.0 mm 0.00 in0.0 mm 0.00 in0.0 mm
12:12 PM 33.7°F0.9°C 18.8°F-7.3°C 54% 7.0 mph NNW11.3 kmh NNW 16.0 mph25.7 kmh 30.44 in1030.8 mb 0.00 in0.0 mm 0.00 in0.0 mm 0.00 in0.0 mm
12:14 PM 33.7°F0.9°C 17.9°F-7.8°C 52% 7.0 mph NNW11.3 kmh NNW 16.0 mph25.7 kmh 30.44 in1030.8 mb 0.00 in0.0 mm 0.00 in0.0 mm 0.00 in0.0 mm
12:16 PM 33.8°F1.0°C 18.9°F-7.3°C 54% 7.0 mph NNW11.3 kmh NNW 16.0 mph25.7 kmh 30.44 in1030.8 mb 0.00 in0.0 mm 0.00 in0.0 mm 0.00 in0.0 mm
12:18 PM 34.0°F1.1°C 19.1°F-7.2°C 54% 7.0 mph NW11.3 kmh NW 16.0 mph25.7 kmh 30.44 in1030.8 mb 0.00 in0.0 mm 0.00 in0.0 mm 0.00 in0.0 mm
12:20 PM 34.2°F1.2°C 19.3°F-7.1°C 54% 6.0 mph NW9.7 kmh NW 12.0 mph19.3 kmh 30.44 in1030.8 mb 0.00 in0.0 mm 0.00 in0.0 mm 0.00 in0.0 mm
12:22 PM 34.4°F1.3°C 19.0°F-7.2°C 53% 5.0 mph NW8.0 kmh NW 11.0 mph17.7 kmh 30.44 in1030.8 mb 0.00 in0.0 mm 0.00 in0.0 mm 0.00 in0.0 mm
12:24 PM 34.5°F1.4°C 19.1°F-7.2°C 53% 5.0 mph NW8.0 kmh NW 11.0 mph17.7 kmh 30.44 in1030.8 mb 0.00 in0.0 mm 0.00 in0.0 mm 0.00 in0.0 mm
12:26 PM 34.5°F1.4°C 18.7°F-7.4°C 52% 5.0 mph NW8.0 kmh NW 11.0 mph17.7 kmh 30.44 in1030.8 mb 0.00 in0.0 mm 0.00 in0.0 mm 0.00 in0.0 mm
12:28 PM 34.5°F1.4°C 18.2°F-7.7°C 51% 5.0 mph NNW8.0 kmh NNW 11.0 mph17.7 kmh 30.44 in1030.8 mb 0.00 in0.0 mm 0.00 in0.0 mm 0.00 in0.0 mm
12:30 PM 34.5°F1.4°C 18.7°F-7.4°C 52% 6.0 mph NNW9.7 kmh NNW 11.0 mph17.7 kmh 30.44 in1030.8 mb 0.00 in0.0 mm 0.00 in0.0 mm 0.00 in0.0 mm
12:32 PM 34.5°F1.4°C 19.1°F-7.2°C 53% 6.0 mph NNW9.7 kmh NNW 9.0 mph14.5 kmh 30.44 in1030.8 mb 0.00 in0.0 mm 0.00 in0.0 mm 0.00 in0.0 mm
12:34 PM 34.6°F1.4°C 19.2°F-7.1°C 53% 5.0 mph NW8.0 kmh NW 9.0 mph14.5 kmh 30.44 in1030.8 mb 0.00 in0.0 mm 0.00 in0.0 mm 0.00 in0.0 mm
12:36 PM 34.8°F1.6°C 18.9°F-7.3°C 52% 5.0 mph NW8.0 kmh NW 9.0 mph14.5 kmh 30.44 in1030.8 mb 0.00 in0.0 mm 0.00 in0.0 mm 0.00 in0.0 mm
12:38 PM 34.9°F1.6°C 19.0°F-7.2°C 52% 5.0 mph NW8.0 kmh NW 9.0 mph14.5 kmh 30.43 in1030.5 mb 0.00 in0.0 mm 0.00 in0.0 mm 0.00 in0.0 mm
12:40 PM 34.9°F1.6°C 19.0°F-7.2°C 52% 5.0 mph NW8.0 kmh NW 11.0 mph17.7 kmh 30.43 in1030.5 mb 0.00 in0.0 mm 0.00 in0.0 mm 0.00 in0.0 mm
12:42 PM 35.0°F1.7°C 19.1°F-7.2°C 52% 5.0 mph NW8.0 kmh NW 11.0 mph17.7 kmh 30.43 in1030.5 mb 0.00 in0.0 mm 0.00 in0.0 mm 0.00 in0.0 mm
12:44 PM 35.0°F1.7°C 18.2°F-7.7°C 50% 5.0 mph NW8.0 kmh NW 14.0 mph22.5 kmh 30.43 in1030.5 mb 0.00 in0.0 mm 0.00 in0.0 mm 0.00 in0.0 mm
12:46 PM 34.9°F1.6°C 18.1°F-7.7°C 50% 6.0 mph NW9.7 kmh NW 14.0 mph22.5 kmh 30.43 in1030.5 mb 0.00 in0.0 mm 0.00 in0.0 mm 0.00 in0.0 mm
12:48 PM 34.8°F1.6°C 18.5°F-7.5°C 51% 6.0 mph NW9.7 kmh NW 14.0 mph22.5 kmh 30.43 in1030.5 mb 0.00 in0.0 mm 0.00 in0.0 mm 0.00 in0.0 mm
12:50 PM 34.8°F1.6°C 18.0°F-7.8°C 50% 6.0 mph NW9.7 kmh NW 14.0 mph22.5 kmh 30.43 in1030.5 mb 0.00 in0.0 mm 0.00 in0.0 mm 0.00 in0.0 mm
12:52 PM 34.8°F1.6°C 18.9°F-7.3°C 52% 6.0 mph NW9.7 kmh NW 14.0 mph22.5 kmh 30.43 in1030.5 mb 0.00 in0.0 mm 0.00 in0.0 mm 0.00 in0.0 mm
12:54 PM 34.8°F1.6°C 18.5°F-7.5°C 51% 6.0 mph NW9.7 kmh NW 13.0 mph20.9 kmh 30.43 in1030.5 mb 0.00 in0.0 mm 0.00 in0.0 mm 0.00 in0.0 mm
12:56 PM 34.8°F1.6°C 18.5°F-7.5°C 51% 6.0 mph NW9.7 kmh NW 13.0 mph20.9 kmh 30.43 in1030.5 mb 0.00 in0.0 mm 0.00 in0.0 mm 0.00 in0.0 mm
12:58 PM 34.8°F1.6°C 18.9°F-7.3°C 52% 6.0 mph NW9.7 kmh NW 13.0 mph20.9 kmh 30.43 in1030.5 mb 0.00 in0.0 mm 0.00 in0.0 mm 0.00 in0.0 mm
01:00 PM 35.0°F1.7°C 19.6°F-6.9°C 53% 6.0 mph NW9.7 kmh NW 13.0 mph20.9 kmh 30.43 in1030.5 mb 0.00 in0.0 mm 0.00 in0.0 mm 0.00 in0.0 mm
01:02 PM 35.1°F1.7°C 18.8°F-7.3°C 51% 6.0 mph NW9.7 kmh NW 13.0 mph20.9 kmh 30.44 in1030.8 mb 0.00 in0.0 mm 0.00 in0.0 mm 0.00 in0.0 mm
01:04 PM 35.1°F1.7°C 18.8°F-7.3°C 51% 6.0 mph NW9.7 kmh NW 11.0 mph17.7 kmh 30.44 in1030.8 mb 0.00 in0.0 mm 0.00 in0.0 mm 0.00 in0.0 mm
01:06 PM 35.2°F1.8°C 17.9°F-7.8°C 49% 6.0 mph NW9.7 kmh NW 14.0 mph22.5 kmh 30.44 in1030.8 mb 0.00 in0.0 mm 0.00 in0.0 mm 0.00 in0.0 mm
01:08 PM 35.1°F1.7°C 17.4°F-8.1°C 48% 6.0 mph NW9.7 kmh NW 14.0 mph22.5 kmh 30.43 in1030.5 mb 0.00 in0.0 mm 0.00 in0.0 mm 0.00 in0.0 mm
01:10 PM 35.2°F1.8°C 17.4°F-8.1°C 48% 6.0 mph NW9.7 kmh NW 14.0 mph22.5 kmh 30.43 in1030.5 mb 0.00 in0.0 mm 0.00 in0.0 mm 0.00 in0.0 mm
01:12 PM 35.2°F1.8°C 17.9°F-7.8°C 49% 6.0 mph NW9.7 kmh NW 14.0 mph22.5 kmh 30.43 in1030.5 mb 0.00 in0.0 mm 0.00 in0.0 mm 0.00 in0.0 mm
01:14 PM 35.3°F1.8°C 19.0°F-7.2°C 51% 6.0 mph NW9.7 kmh NW 14.0 mph22.5 kmh 30.43 in1030.5 mb 0.00 in0.0 mm 0.00 in0.0 mm 0.00 in0.0 mm
01:16 PM 35.3°F1.8°C 17.1°F-8.3°C 47% 6.0 mph NW9.7 kmh NW 14.0 mph22.5 kmh 30.43 in1030.5 mb 0.00 in0.0 mm 0.00 in0.0 mm 0.00 in0.0 mm
01:18 PM 35.2°F1.8°C 17.0°F-8.3°C 47% 6.0 mph NW9.7 kmh NW 14.0 mph22.5 kmh 30.43 in1030.5 mb 0.00 in0.0 mm 0.00 in0.0 mm 0.00 in0.0 mm
01:20 PM 35.0°F1.7°C 16.8°F-8.4°C 47% 7.0 mph NW11.3 kmh NW 14.0 mph22.5 kmh 30.43 in1030.5 mb 0.00 in0.0 mm 0.00 in0.0 mm 0.00 in0.0 mm
01:22 PM 34.8°F1.6°C 16.6°F-8.6°C 47% 7.0 mph NW11.3 kmh NW 14.0 mph22.5 kmh 30.43 in1030.5 mb 0.00 in0.0 mm 0.00 in0.0 mm 0.00 in0.0 mm
01:24 PM 34.7°F1.5°C 16.5°F-8.6°C 47% 8.0 mph NW12.9 kmh NW 14.0 mph22.5 kmh 30.43 in1030.5 mb 0.00 in0.0 mm 0.00 in0.0 mm 0.00 in0.0 mm
01:26 PM 34.6°F1.4°C 16.4°F-8.7°C 47% 7.0 mph NW11.3 kmh NW 14.0 mph22.5 kmh 30.43 in1030.5 mb 0.00 in0.0 mm 0.00 in0.0 mm 0.00 in0.0 mm
01:28 PM 34.5°F1.4°C 16.8°F-8.4°C 48% 7.0 mph NW11.3 kmh NW 14.0 mph22.5 kmh 30.43 in1030.5 mb 0.00 in0.0 mm 0.00 in0.0 mm 0.00 in0.0 mm
01:30 PM 34.5°F1.4°C 16.8°F-8.4°C 48% 7.0 mph NW11.3 kmh NW 14.0 mph22.5 kmh 30.43 in1030.5 mb 0.00 in0.0 mm 0.00 in0.0 mm 0.00 in0.0 mm
01:32 PM 34.6°F1.4°C 17.4°F-8.1°C 49% 7.0 mph NW11.3 kmh NW 12.0 mph19.3 kmh 30.43 in1030.5 mb 0.00 in0.0 mm 0.00 in0.0 mm 0.00 in0.0 mm
01:34 PM 34.6°F1.4°C 16.4°F-8.7°C 47% 7.0 mph NW11.3 kmh NW 14.0 mph22.5 kmh 30.43 in1030.5 mb 0.00 in0.0 mm 0.00 in0.0 mm 0.00 in0.0 mm
01:36 PM 34.5°F1.4°C 16.3°F-8.7°C 47% 7.0 mph NW11.3 kmh NW 14.0 mph22.5 kmh 30.43 in1030.5 mb 0.00 in0.0 mm 0.00 in0.0 mm 0.00 in0.0 mm
01:38 PM 34.6°F1.4°C 16.9°F-8.4°C 48% 7.0 mph NW11.3 kmh NW 14.0 mph22.5 kmh 30.43 in1030.5 mb 0.00 in0.0 mm 0.00 in0.0 mm 0.00 in0.0 mm
01:40 PM 34.6°F1.4°C 16.9°F-8.4°C 48% 7.0 mph NW11.3 kmh NW 14.0 mph22.5 kmh 30.43 in1030.5 mb 0.00 in0.0 mm 0.00 in0.0 mm 0.00 in0.0 mm
01:42 PM 34.6°F1.4°C 16.9°F-8.4°C 48% 7.0 mph NW11.3 kmh NW 14.0 mph22.5 kmh 30.43 in1030.5 mb 0.00 in0.0 mm 0.00 in0.0 mm 0.00 in0.0 mm
01:44 PM 34.6°F1.4°C 16.4°F-8.7°C 47% 6.0 mph NW9.7 kmh NW 12.0 mph19.3 kmh 30.43 in1030.5 mb 0.00 in0.0 mm 0.00 in0.0 mm 0.00 in0.0 mm
01:46 PM 34.6°F1.4°C 16.9°F-8.4°C 48% 6.0 mph NW9.7 kmh NW 12.0 mph19.3 kmh 30.43 in1030.5 mb 0.00 in0.0 mm 0.00 in0.0 mm 0.00 in0.0 mm
01:48 PM 34.6°F1.4°C 16.9°F-8.4°C 48% 6.0 mph NW9.7 kmh NW 12.0 mph19.3 kmh 30.43 in1030.5 mb 0.00 in0.0 mm 0.00 in0.0 mm 0.00 in0.0 mm
01:50 PM 34.6°F1.4°C 17.4°F-8.1°C 49% 6.0 mph NW9.7 kmh NW 12.0 mph19.3 kmh 30.43 in1030.5 mb 0.00 in0.0 mm 0.00 in0.0 mm 0.00 in0.0 mm
01:52 PM 34.6°F1.4°C 17.8°F-7.9°C 50% 6.0 mph NW9.7 kmh NW 11.0 mph17.7 kmh 30.43 in1030.5 mb 0.00 in0.0 mm 0.00 in0.0 mm 0.00 in0.0 mm
01:54 PM 34.7°F1.5°C 17.5°F-8.1°C 49% 6.0 mph NW9.7 kmh NW 11.0 mph17.7 kmh 30.43 in1030.5 mb 0.00 in0.0 mm 0.00 in0.0 mm 0.00 in0.0 mm
01:56 PM 34.7°F1.5°C 17.9°F-7.8°C 50% 6.0 mph NW9.7 kmh NW 11.0 mph17.7 kmh 30.43 in1030.5 mb 0.00 in0.0 mm 0.00 in0.0 mm 0.00 in0.0 mm
01:58 PM 34.7°F1.5°C 17.9°F-7.8°C 50% 6.0 mph NW9.7 kmh NW 11.0 mph17.7 kmh 30.43 in1030.5 mb 0.00 in0.0 mm 0.00 in0.0 mm 0.00 in0.0 mm
02:00 PM 34.6°F1.4°C 17.8°F-7.9°C 50% 6.0 mph NW9.7 kmh NW 11.0 mph17.7 kmh 30.43 in1030.5 mb 0.00 in0.0 mm 0.00 in0.0 mm 0.00 in0.0 mm
02:02 PM 34.6°F1.4°C 18.3°F-7.6°C 51% 6.0 mph NW9.7 kmh NW 11.0 mph17.7 kmh 30.43 in1030.5 mb 0.00 in0.0 mm 0.00 in0.0 mm 0.00 in0.0 mm
02:04 PM 34.5°F1.4°C 18.2°F-7.7°C 51% 6.0 mph NW9.7 kmh NW 11.0 mph17.7 kmh 30.43 in1030.5 mb 0.00 in0.0 mm 0.00 in0.0 mm 0.00 in0.0 mm
02:06 PM 34.4°F1.3°C 17.7°F-7.9°C 50% 6.0 mph NW9.7 kmh NW 11.0 mph17.7 kmh 30.43 in1030.5 mb 0.00 in0.0 mm 0.00 in0.0 mm 0.00 in0.0 mm
02:08 PM 34.4°F1.3°C 17.7°F-7.9°C 50% 6.0 mph NW9.7 kmh NW 13.0 mph20.9 kmh 30.43 in1030.5 mb 0.00 in0.0 mm 0.00 in0.0 mm 0.00 in0.0 mm
02:10 PM 34.4°F1.3°C 18.1°F-7.7°C 51% 6.0 mph NW9.7 kmh NW 13.0 mph20.9 kmh 30.43 in1030.5 mb 0.00 in0.0 mm 0.00 in0.0 mm 0.00 in0.0 mm
02:12 PM 34.4°F1.3°C 17.7°F-7.9°C 50% 6.0 mph NW9.7 kmh NW 13.0 mph20.9 kmh 30.43 in1030.5 mb 0.00 in0.0 mm 0.00 in0.0 mm 0.00 in0.0 mm
02:14 PM 34.4°F1.3°C 17.2°F-8.2°C 49% 6.0 mph NW9.7 kmh NW 13.0 mph20.9 kmh 30.43 in1030.5 mb 0.00 in0.0 mm 0.00 in0.0 mm 0.00 in0.0 mm
02:16 PM 34.3°F1.3°C 17.1°F-8.3°C 49% 6.0 mph NW9.7 kmh NW 13.0 mph20.9 kmh 30.43 in1030.5 mb 0.00 in0.0 mm 0.00 in0.0 mm 0.00 in0.0 mm
02:18 PM 34.3°F1.3°C 17.6°F-8.0°C 50% 6.0 mph NW9.7 kmh NW 11.0 mph17.7 kmh 30.43 in1030.5 mb 0.00 in0.0 mm 0.00 in0.0 mm 0.00 in0.0 mm
02:20 PM 34.2°F1.2°C 17.0°F-8.3°C 49% 6.0 mph NW9.7 kmh NW 10.0 mph16.1 kmh 30.43 in1030.5 mb 0.00 in0.0 mm 0.00 in0.0 mm 0.00 in0.0 mm
02:22 PM 34.1°F1.2°C 16.9°F-8.4°C 49% 6.0 mph NW9.7 kmh NW 13.0 mph20.9 kmh 30.43 in1030.5 mb 0.00 in0.0 mm 0.00 in0.0 mm 0.00 in0.0 mm
02:24 PM 34.1°F1.2°C 17.4°F-8.1°C 50% 6.0 mph NW9.7 kmh NW 13.0 mph20.9 kmh 30.43 in1030.5 mb 0.00 in0.0 mm 0.00 in0.0 mm 0.00 in0.0 mm
02:26 PM 34.1°F1.2°C 17.8°F-7.9°C 51% 6.0 mph NW9.7 kmh NW 13.0 mph20.9 kmh 30.43 in1030.5 mb 0.00 in0.0 mm 0.00 in0.0 mm 0.00 in0.0 mm
02:28 PM 34.1°F1.2°C 17.8°F-7.9°C 51% 6.0 mph NW9.7 kmh NW 13.0 mph20.9 kmh 30.44 in1030.8 mb 0.00 in0.0 mm 0.00 in0.0 mm 0.00 in0.0 mm
02:30 PM 34.1°F1.2°C 17.4°F-8.1°C 50% 6.0 mph NW9.7 kmh NW 13.0 mph20.9 kmh 30.44 in1030.8 mb 0.00 in0.0 mm 0.00 in0.0 mm 0.00 in0.0 mm
02:32 PM 34.2°F1.2°C 17.5°F-8.1°C 50% 5.0 mph NW8.0 kmh NW 11.0 mph17.7 kmh 30.43 in1030.5 mb 0.00 in0.0 mm 0.00 in0.0 mm 0.00 in0.0 mm
02:34 PM 34.2°F1.2°C 17.5°F-8.1°C 50% 5.0 mph NW8.0 kmh NW 11.0 mph17.7 kmh 30.44 in1030.8 mb 0.00 in0.0 mm 0.00 in0.0 mm 0.00 in0.0 mm
02:36 PM 34.2°F1.2°C 17.5°F-8.1°C 50% 5.0 mph NW8.0 kmh NW 11.0 mph17.7 kmh 30.44 in1030.8 mb 0.00 in0.0 mm 0.00 in0.0 mm 0.00 in0.0 mm
02:38 PM 34.1°F1.2°C 16.4°F-8.7°C 48% 5.0 mph NW8.0 kmh NW 11.0 mph17.7 kmh 30.44 in1030.8 mb 0.00 in0.0 mm 0.00 in0.0 mm 0.00 in0.0 mm
02:40 PM 34.0°F1.1°C 16.3°F-8.7°C 48% 6.0 mph NW9.7 kmh NW 12.0 mph19.3 kmh 30.44 in1030.8 mb 0.00 in0.0 mm 0.00 in0.0 mm 0.00 in0.0 mm
02:42 PM 33.9°F1.1°C 16.3°F-8.7°C 48% 6.0 mph NW9.7 kmh NW 13.0 mph20.9 kmh 30.44 in1030.8 mb 0.00 in0.0 mm 0.00 in0.0 mm 0.00 in0.0 mm
02:44 PM 33.8°F1.0°C 16.2°F-8.8°C 48% 6.0 mph NW9.7 kmh NW 13.0 mph20.9 kmh 30.44 in1030.8 mb 0.00 in0.0 mm 0.00 in0.0 mm 0.00 in0.0 mm
02:46 PM 33.6°F0.9°C 16.0°F-8.9°C 48% 7.0 mph NW11.3 kmh NW 13.0 mph20.9 kmh 30.44 in1030.8 mb 0.00 in0.0 mm 0.00 in0.0 mm 0.00 in0.0 mm
02:48 PM 33.5°F0.8°C 15.9°F-8.9°C 48% 7.0 mph NW11.3 kmh NW 13.0 mph20.9 kmh 30.44 in1030.8 mb 0.00 in0.0 mm 0.00 in0.0 mm 0.00 in0.0 mm
02:50 PM 33.5°F0.8°C 16.4°F-8.7°C 49% 7.0 mph NW11.3 kmh NW 13.0 mph20.9 kmh 30.44 in1030.8 mb 0.00 in0.0 mm 0.00 in0.0 mm 0.00 in0.0 mm
02:52 PM 33.5°F0.8°C 16.8°F-8.4°C 50% 7.0 mph NW11.3 kmh NW 12.0 mph19.3 kmh 30.44 in1030.8 mb 0.00 in0.0 mm 0.00 in0.0 mm 0.00 in0.0 mm
02:54 PM 33.5°F0.8°C 16.4°F-8.7°C 49% 6.0 mph NW9.7 kmh NW 11.0 mph17.7 kmh 30.44 in1030.8 mb 0.00 in0.0 mm 0.00 in0.0 mm 0.00 in0.0 mm
02:56 PM 33.5°F0.8°C 16.4°F-8.7°C 49% 6.0 mph NW9.7 kmh NW 13.0 mph20.9 kmh 30.44 in1030.8 mb 0.00 in0.0 mm 0.00 in0.0 mm 0.00 in0.0 mm
02:58 PM 33.4°F0.8°C 15.8°F-9.0°C 48% 6.0 mph NW9.7 kmh NW 14.0 mph22.5 kmh 30.44 in1030.8 mb 0.00 in0.0 mm 0.00 in0.0 mm 0.00 in0.0 mm
03:00 PM 33.3°F0.7°C 15.7°F-9.1°C 48% 6.0 mph NW9.7 kmh NW 14.0 mph22.5 kmh 30.44 in1030.8 mb 0.00 in0.0 mm 0.00 in0.0 mm 0.00 in0.0 mm
03:02 PM 33.3°F0.7°C 15.7°F-9.1°C 48% 6.0 mph NW9.7 kmh NW 14.0 mph22.5 kmh 30.44 in1030.8 mb 0.00 in0.0 mm 0.00 in0.0 mm 0.00 in0.0 mm
03:04 PM 33.2°F0.7°C 15.6°F-9.1°C 48% 7.0 mph NW11.3 kmh NW 14.0 mph22.5 kmh 30.44 in1030.8 mb 0.00 in0.0 mm 0.00 in0.0 mm 0.00 in0.0 mm
03:06 PM 33.1°F0.6°C 16.0°F-8.9°C 49% 7.0 mph NW11.3 kmh NW 14.0 mph22.5 kmh 30.44 in1030.8 mb 0.00 in0.0 mm 0.00 in0.0 mm 0.00 in0.0 mm
03:08 PM 33.0°F0.6°C 15.4°F-9.2°C 48% 6.0 mph NW9.7 kmh NW 12.0 mph19.3 kmh 30.44 in1030.8 mb 0.00 in0.0 mm 0.00 in0.0 mm 0.00 in0.0 mm
03:10 PM 33.0°F0.6°C 15.9°F-8.9°C 49% 6.0 mph NW9.7 kmh NW 12.0 mph19.3 kmh 30.44 in1030.8 mb 0.00 in0.0 mm 0.00 in0.0 mm 0.00 in0.0 mm
03:12 PM 32.9°F0.5°C 15.8°F-9.0°C 49% 6.0 mph NW9.7 kmh NW 12.0 mph19.3 kmh 30.44 in1030.8 mb 0.00 in0.0 mm 0.00 in0.0 mm 0.00 in0.0 mm
03:14 PM 32.9°F0.5°C 16.3°F-8.7°C 50% 6.0 mph NW9.7 kmh NW 11.0 mph17.7 kmh 30.44 in1030.8 mb 0.00 in0.0 mm 0.00 in0.0 mm 0.00 in0.0 mm
03:16 PM 32.9°F0.5°C 15.8°F-9.0°C 49% 6.0 mph NW9.7 kmh NW 12.0 mph19.3 kmh 30.44 in1030.8 mb 0.00 in0.0 mm 0.00 in0.0 mm 0.00 in0.0 mm
03:18 PM 32.8°F0.4°C 16.2°F-8.8°C 50% 6.0 mph NW9.7 kmh NW 12.0 mph19.3 kmh 30.44 in1030.8 mb 0.00 in0.0 mm 0.00 in0.0 mm 0.00 in0.0 mm
03:20 PM 32.7°F0.4°C 16.1°F-8.8°C 50% 6.0 mph NW9.7 kmh NW 12.0 mph19.3 kmh 30.44 in1030.8 mb 0.00 in0.0 mm 0.00 in0.0 mm 0.00 in0.0 mm
03:22 PM 32.6°F0.3°C 16.0°F-8.9°C 50% 6.0 mph NW9.7 kmh NW 12.0 mph19.3 kmh 30.44 in1030.8 mb 0.00 in0.0 mm 0.00 in0.0 mm 0.00 in0.0 mm
03:24 PM 32.6°F0.3°C 15.5°F-9.2°C 49% 6.0 mph NW9.7 kmh NW 12.0 mph19.3 kmh 30.44 in1030.8 mb 0.00 in0.0 mm 0.00 in0.0 mm 0.00 in0.0 mm
03:26 PM 32.5°F0.3°C 15.4°F-9.2°C 49% 6.0 mph NW9.7 kmh NW 12.0 mph19.3 kmh 30.44 in1030.8 mb 0.00 in0.0 mm 0.00 in0.0 mm 0.00 in0.0 mm
03:28 PM 32.4°F0.2°C 15.8°F-9.0°C 50% 6.0 mph NW9.7 kmh NW 12.0 mph19.3 kmh 30.45 in1031.2 mb 0.00 in0.0 mm 0.00 in0.0 mm 0.00 in0.0 mm
03:30 PM 32.3°F0.2°C 15.7°F-9.1°C 50% 6.0 mph NW9.7 kmh NW 12.0 mph19.3 kmh 30.45 in1031.2 mb 0.00 in0.0 mm 0.00 in0.0 mm 0.00 in0.0 mm
03:32 PM 32.3°F0.2°C 15.3°F-9.3°C 49% 6.0 mph NW9.7 kmh NW 13.0 mph20.9 kmh 30.44 in1030.8 mb 0.00 in0.0 mm 0.00 in0.0 mm 0.00 in0.0 mm
03:34 PM 32.2°F0.1°C 15.2°F-9.3°C 49% 6.0 mph NW9.7 kmh NW 13.0 mph20.9 kmh 30.45 in1031.2 mb 0.00 in0.0 mm 0.00 in0.0 mm 0.00 in0.0 mm
03:36 PM 32.2°F0.1°C 15.6°F-9.1°C 50% 5.0 mph NW8.0 kmh NW 13.0 mph20.9 kmh 30.45 in1031.2 mb 0.00 in0.0 mm 0.00 in0.0 mm 0.00 in0.0 mm
03:38 PM 32.1°F0.1°C 15.1°F-9.4°C 49% 6.0 mph NW9.7 kmh NW 13.0 mph20.9 kmh 30.45 in1031.2 mb 0.00 in0.0 mm 0.00 in0.0 mm 0.00 in0.0 mm
03:40 PM 32.1°F0.1°C 15.1°F-9.4°C 49% 6.0 mph NW9.7 kmh NW 13.0 mph20.9 kmh 30.45 in1031.2 mb 0.00 in0.0 mm 0.00 in0.0 mm 0.00 in0.0 mm
03:42 PM 32.0°F0.0°C 15.0°F-9.4°C 49% 6.0 mph NW9.7 kmh NW 12.0 mph19.3 kmh 30.45 in1031.2 mb 0.00 in0.0 mm 0.00 in0.0 mm 0.00 in0.0 mm
03:44 PM 31.9°F-0.1°C 14.9°F-9.5°C 49% 6.0 mph NW9.7 kmh NW 12.0 mph19.3 kmh 30.45 in1031.2 mb 0.00 in0.0 mm 0.00 in0.0 mm 0.00 in0.0 mm
03:46 PM 31.8°F-0.1°C 14.8°F-9.6°C 49% 6.0 mph NW9.7 kmh NW 12.0 mph19.3 kmh 30.45 in1031.2 mb 0.00 in0.0 mm 0.00 in0.0 mm 0.00 in0.0 mm
03:48 PM 31.7°F-0.2°C 14.7°F-9.6°C 49% 6.0 mph NW9.7 kmh NW 12.0 mph19.3 kmh 30.45 in1031.2 mb 0.00 in0.0 mm 0.00 in0.0 mm 0.00 in0.0 mm
03:50 PM 31.6°F-0.2°C 14.6°F-9.7°C 49% 6.0 mph NW9.7 kmh NW 11.0 mph17.7 kmh 30.45 in1031.2 mb 0.00 in0.0 mm 0.00 in0.0 mm 0.00 in0.0 mm
03:52 PM 31.5°F-0.3°C 15.0°F-9.4°C 50% 5.0 mph NW8.0 kmh NW 11.0 mph17.7 kmh 30.45 in1031.2 mb 0.00 in0.0 mm 0.00 in0.0 mm 0.00 in0.0 mm
03:54 PM 31.4°F-0.3°C 14.9°F-9.5°C 50% 5.0 mph NW8.0 kmh NW 11.0 mph17.7 kmh 30.45 in1031.2 mb 0.00 in0.0 mm 0.00 in0.0 mm 0.00 in0.0 mm
03:56 PM 31.3°F-0.4°C 14.8°F-9.6°C 50% 5.0 mph NW8.0 kmh NW 11.0 mph17.7 kmh 30.45 in1031.2 mb 0.00 in0.0 mm 0.00 in0.0 mm 0.00 in0.0 mm
03:58 PM 31.2°F-0.4°C 15.2°F-9.3°C 51% 5.0 mph NW8.0 kmh NW 11.0 mph17.7 kmh 30.45 in1031.2 mb 0.00 in0.0 mm 0.00 in0.0 mm 0.00 in0.0 mm
04:00 PM 31.1°F-0.5°C 15.1°F-9.4°C 51% 5.0 mph NW8.0 kmh NW 11.0 mph17.7 kmh 30.46 in1031.5 mb 0.00 in0.0 mm 0.00 in0.0 mm 0.00 in0.0 mm
04:02 PM 31.1°F-0.5°C 14.6°F-9.7°C 50% 5.0 mph NW8.0 kmh NW 10.0 mph16.1 kmh 30.46 in1031.5 mb 0.00 in0.0 mm 0.00 in0.0 mm 0.00 in0.0 mm
04:04 PM 31.0°F-0.6°C 15.4°F-9.2°C 52% 5.0 mph NW8.0 kmh NW 10.0 mph16.1 kmh 30.46 in1031.5 mb 0.00 in0.0 mm 0.00 in0.0 mm 0.00 in0.0 mm
04:06 PM 30.9°F-0.6°C 15.3°F-9.3°C 52% 5.0 mph NW8.0 kmh NW 11.0 mph17.7 kmh 30.46 in1031.5 mb 0.00 in0.0 mm 0.00 in0.0 mm 0.00 in0.0 mm
04:08 PM 30.7°F-0.7°C 15.1°F-9.4°C 52% 5.0 mph NW8.0 kmh NW 11.0 mph17.7 kmh 30.46 in1031.5 mb 0.00 in0.0 mm 0.00 in0.0 mm 0.00 in0.0 mm
04:10 PM 30.6°F-0.8°C 15.0°F-9.4°C 52% 5.0 mph NW8.0 kmh NW 11.0 mph17.7 kmh 30.46 in1031.5 mb 0.00 in0.0 mm 0.00 in0.0 mm 0.00 in0.0 mm
04:12 PM 30.5°F-0.8°C 14.9°F-9.5°C 52% 5.0 mph WNW8.0 kmh WNW 11.0 mph17.7 kmh 30.46 in1031.5 mb 0.00 in0.0 mm 0.00 in0.0 mm 0.00 in0.0 mm
04:14 PM 30.4°F-0.9°C 14.9°F-9.5°C 52% 5.0 mph WNW8.0 kmh WNW 11.0 mph17.7 kmh 30.46 in1031.5 mb 0.00 in0.0 mm 0.00 in0.0 mm 0.00 in0.0 mm
04:16 PM 30.3°F-0.9°C 14.8°F-9.6°C 52% 5.0 mph WNW8.0 kmh WNW 11.0 mph17.7 kmh 30.46 in1031.5 mb 0.00 in0.0 mm 0.00 in0.0 mm 0.00 in0.0 mm
04:18 PM 30.2°F-1.0°C 14.7°F-9.6°C 52% 5.0 mph NW8.0 kmh NW 11.0 mph17.7 kmh 30.46 in1031.5 mb 0.00 in0.0 mm 0.00 in0.0 mm 0.00 in0.0 mm
04:20 PM 30.0°F-1.1°C 14.0°F-10.0°C 51% 5.0 mph WNW8.0 kmh WNW 11.0 mph17.7 kmh 30.46 in1031.5 mb 0.00 in0.0 mm 0.00 in0.0 mm 0.00 in0.0 mm
04:22 PM 29.9°F-1.2°C 13.9°F-10.1°C 51% 5.0 mph NW8.0 kmh NW 11.0 mph17.7 kmh 30.47 in1031.8 mb 0.00 in0.0 mm 0.00 in0.0 mm 0.00 in0.0 mm
04:24 PM 29.8°F-1.2°C 14.3°F-9.8°C 52% 5.0 mph WNW8.0 kmh WNW 11.0 mph17.7 kmh 30.47 in1031.8 mb 0.00 in0.0 mm 0.00 in0.0 mm 0.00 in0.0 mm
04:26 PM 29.7°F-1.3°C 14.2°F-9.9°C 52% 5.0 mph WNW8.0 kmh WNW 11.0 mph17.7 kmh 30.47 in1031.8 mb 0.00 in0.0 mm 0.00 in0.0 mm 0.00 in0.0 mm
04:28 PM 29.6°F-1.3°C 14.1°F-9.9°C 52% 5.0 mph WNW8.0 kmh WNW 11.0 mph17.7 kmh 30.47 in1031.8 mb 0.00 in0.0 mm 0.00 in0.0 mm 0.00 in0.0 mm
04:30 PM 29.5°F-1.4°C 14.0°F-10.0°C 52% 5.0 mph WNW8.0 kmh WNW 11.0 mph17.7 kmh 30.47 in1031.8 mb 0.00 in0.0 mm 0.00 in0.0 mm 0.00 in0.0 mm
04:32 PM 29.4°F-1.4°C 14.4°F-9.8°C 53% 5.0 mph NW8.0 kmh NW 11.0 mph17.7 kmh 30.47 in1031.8 mb 0.00 in0.0 mm 0.00 in0.0 mm 0.00 in0.0 mm
04:34 PM 29.3°F-1.5°C 14.3°F-9.8°C 53% 4.0 mph NW6.4 kmh NW 10.0 mph16.1 kmh 30.47 in1031.8 mb 0.00 in0.0 mm 0.00 in0.0 mm 0.00 in0.0 mm
04:36 PM 29.2°F-1.6°C 14.2°F-9.9°C 53% 4.0 mph NW6.4 kmh NW 9.0 mph14.5 kmh 30.47 in1031.8 mb 0.00 in0.0 mm 0.00 in0.0 mm 0.00 in0.0 mm
04:38 PM 29.1°F-1.6°C 14.5°F-9.7°C 54% 4.0 mph NW6.4 kmh NW 9.0 mph14.5 kmh 30.47 in1031.8 mb 0.00 in0.0 mm 0.00 in0.0 mm 0.00 in0.0 mm
04:40 PM 28.9°F-1.7°C 14.3°F-9.8°C 54% 4.0 mph NW6.4 kmh NW 9.0 mph14.5 kmh 30.47 in1031.8 mb 0.00 in0.0 mm 0.00 in0.0 mm 0.00 in0.0 mm
04:42 PM 28.8°F-1.8°C 14.6°F-9.7°C 55% 4.0 mph NW6.4 kmh NW 9.0 mph14.5 kmh 30.47 in1031.8 mb 0.00 in0.0 mm 0.00 in0.0 mm 0.00 in0.0 mm
04:44 PM 28.7°F-1.8°C 14.6°F-9.7°C 55% 4.0 mph NW6.4 kmh NW 9.0 mph14.5 kmh 30.47 in1031.8 mb 0.00 in0.0 mm 0.00 in0.0 mm 0.00 in0.0 mm
04:46 PM 28.5°F-1.9°C 14.4°F-9.8°C 55% 4.0 mph WNW6.4 kmh WNW 9.0 mph14.5 kmh 30.47 in1031.8 mb 0.00 in0.0 mm 0.00 in0.0 mm 0.00 in0.0 mm
04:48 PM 28.4°F-2.0°C 14.7°F-9.6°C 56% 3.0 mph WNW4.8 kmh WNW 7.0 mph11.3 kmh 30.48 in1032.2 mb 0.00 in0.0 mm 0.00 in0.0 mm 0.00 in0.0 mm
04:50 PM 28.2°F-2.1°C 14.9°F-9.5°C 57% 3.0 mph WNW4.8 kmh WNW 7.0 mph11.3 kmh 30.48 in1032.2 mb 0.00 in0.0 mm 0.00 in0.0 mm 0.00 in0.0 mm
04:52 PM 28.1°F-2.2°C 15.2°F-9.3°C 58% 3.0 mph WNW4.8 kmh WNW 7.0 mph11.3 kmh 30.48 in1032.2 mb 0.00 in0.0 mm 0.00 in0.0 mm 0.00 in0.0 mm
04:54 PM 27.9°F-2.3°C 15.0°F-9.4°C 58% 3.0 mph WNW4.8 kmh WNW 8.0 mph12.9 kmh 30.48 in1032.2 mb 0.00 in0.0 mm 0.00 in0.0 mm 0.00 in0.0 mm
04:56 PM 27.7°F-2.4°C 14.8°F-9.6°C 58% 3.0 mph WNW4.8 kmh WNW 8.0 mph12.9 kmh 30.48 in1032.2 mb 0.00 in0.0 mm 0.00 in0.0 mm 0.00 in0.0 mm
04:58 PM 27.6°F-2.4°C 15.1°F-9.4°C 59% 3.0 mph WNW4.8 kmh WNW 8.0 mph12.9 kmh 30.48 in1032.2 mb 0.00 in0.0 mm 0.00 in0.0 mm 0.00 in0.0 mm
05:00 PM 27.5°F-2.5°C 15.0°F-9.4°C 59% 3.0 mph WNW4.8 kmh WNW 8.0 mph12.9 kmh 30.48 in1032.2 mb 0.00 in0.0 mm 0.00 in0.0 mm 0.00 in0.0 mm
05:02 PM 27.4°F-2.6°C 14.9°F-9.5°C 59% 4.0 mph WNW6.4 kmh WNW 8.0 mph12.9 kmh 30.48 in1032.2 mb 0.00 in0.0 mm 0.00 in0.0 mm 0.00 in0.0 mm
05:04 PM 27.3°F-2.6°C 14.8°F-9.6°C 59% 3.0 mph WNW4.8 kmh WNW 7.0 mph11.3 kmh 30.48 in1032.2 mb 0.00 in0.0 mm 0.00 in0.0 mm 0.00 in0.0 mm
05:06 PM 27.2°F-2.7°C 14.8°F-9.6°C 59% 3.0 mph WNW4.8 kmh WNW 7.0 mph11.3 kmh 30.48 in1032.2 mb 0.00 in0.0 mm 0.00 in0.0 mm 0.00 in0.0 mm
05:08 PM 27.1°F-2.7°C 15.0°F-9.4°C 60% 3.0 mph WNW4.8 kmh WNW 7.0 mph11.3 kmh 30.48 in1032.2 mb 0.00 in0.0 mm 0.00 in0.0 mm 0.00 in0.0 mm
05:10 PM 27.0°F-2.8°C 14.9°F-9.5°C 60% 3.0 mph WNW4.8 kmh WNW 7.0 mph11.3 kmh 30.48 in1032.2 mb 0.00 in0.0 mm 0.00 in0.0 mm 0.00 in0.0 mm
05:14 PM 26.9°F-2.8°C 15.2°F-9.3°C 61% 2.0 mph WNW3.2 kmh WNW 5.0 mph8.0 kmh 30.49 in1032.5 mb 0.00 in0.0 mm 0.00 in0.0 mm 0.00 in0.0 mm
05:16 PM 26.8°F-2.9°C 15.1°F-9.4°C 61% 2.0 mph WNW3.2 kmh WNW 5.0 mph8.0 kmh 30.49 in1032.5 mb 0.00 in0.0 mm 0.00 in0.0 mm 0.00 in0.0 mm
05:18 PM 26.7°F-2.9°C 15.0°F-9.4°C 61% 2.0 mph WNW3.2 kmh WNW 9.0 mph14.5 kmh 30.49 in1032.5 mb 0.00 in0.0 mm 0.00 in0.0 mm 0.00 in0.0 mm
05:20 PM 26.6°F-3.0°C 14.9°F-9.5°C 61% 2.0 mph WNW3.2 kmh WNW 9.0 mph14.5 kmh 30.49 in1032.5 mb 0.00 in0.0 mm 0.00 in0.0 mm 0.00 in0.0 mm
05:22 PM 26.5°F-3.1°C 15.2°F-9.3°C 62% 3.0 mph WNW4.8 kmh WNW 9.0 mph14.5 kmh 30.49 in1032.5 mb 0.00 in0.0 mm 0.00 in0.0 mm 0.00 in0.0 mm
05:24 PM 26.5°F-3.1°C 15.2°F-9.3°C 62% 3.0 mph WNW4.8 kmh WNW 9.0 mph14.5 kmh 30.49 in1032.5 mb 0.00 in0.0 mm 0.00 in0.0 mm 0.00 in0.0 mm
05:26 PM 26.4°F-3.1°C 15.1°F-9.4°C 62% 3.0 mph WNW4.8 kmh WNW 9.0 mph14.5 kmh 30.49 in1032.5 mb 0.00 in0.0 mm 0.00 in0.0 mm 0.00 in0.0 mm
05:28 PM 26.3°F-3.2°C 15.0°F-9.4°C 62% 3.0 mph WNW4.8 kmh WNW 7.0 mph11.3 kmh 30.49 in1032.5 mb 0.00 in0.0 mm 0.00 in0.0 mm 0.00 in0.0 mm
05:30 PM 26.3°F-3.2°C 15.4°F-9.2°C 63% 3.0 mph WNW4.8 kmh WNW 7.0 mph11.3 kmh 30.49 in1032.5 mb 0.00 in0.0 mm 0.00 in0.0 mm 0.00 in0.0 mm
05:32 PM 26.2°F-3.2°C 15.3°F-9.3°C 63% 3.0 mph WNW4.8 kmh WNW 5.0 mph8.0 kmh 30.49 in1032.5 mb 0.00 in0.0 mm 0.00 in0.0 mm 0.00 in0.0 mm
05:34 PM 26.1°F-3.3°C 15.6°F-9.1°C 64% 2.0 mph WNW3.2 kmh WNW 6.0 mph9.7 kmh 30.49 in1032.5 mb 0.00 in0.0 mm 0.00 in0.0 mm 0.00 in0.0 mm
05:36 PM 26.0°F-3.3°C 15.5°F-9.2°C 64% 2.0 mph WNW3.2 kmh WNW 6.0 mph9.7 kmh 30.49 in1032.5 mb 0.00 in0.0 mm 0.00 in0.0 mm 0.00 in0.0 mm
05:38 PM 26.0°F-3.3°C 15.5°F-9.2°C 64% 2.0 mph WNW3.2 kmh WNW 6.0 mph9.7 kmh 30.49 in1032.5 mb 0.00 in0.0 mm 0.00 in0.0 mm 0.00 in0.0 mm
05:40 PM 25.8°F-3.4°C 15.3°F-9.3°C 64% 2.0 mph WNW3.2 kmh WNW 6.0 mph9.7 kmh 30.50 in1032.8 mb 0.00 in0.0 mm 0.00 in0.0 mm 0.00 in0.0 mm
05:42 PM 25.8°F-3.4°C 15.6°F-9.1°C 65% 2.0 mph WNW3.2 kmh WNW 6.0 mph9.7 kmh 30.50 in1032.8 mb 0.00 in0.0 mm 0.00 in0.0 mm 0.00 in0.0 mm
05:44 PM 25.7°F-3.5°C 15.6°F-9.1°C 65% 2.0 mph NW3.2 kmh NW 5.0 mph8.0 kmh 30.50 in1032.8 mb 0.00 in0.0 mm 0.00 in0.0 mm 0.00 in0.0 mm
05:46 PM 25.6°F-3.6°C 15.5°F-9.2°C 65% 2.0 mph WNW3.2 kmh WNW 7.0 mph11.3 kmh 30.50 in1032.8 mb 0.00 in0.0 mm 0.00 in0.0 mm 0.00 in0.0 mm
05:48 PM 25.6°F-3.6°C 15.8°F-9.0°C 66% 2.0 mph WNW3.2 kmh WNW 7.0 mph11.3 kmh 30.50 in1032.8 mb 0.00 in0.0 mm 0.00 in0.0 mm 0.00 in0.0 mm
05:50 PM 25.5°F-3.6°C 15.7°F-9.1°C 66% 2.0 mph WNW3.2 kmh WNW 7.0 mph11.3 kmh 30.50 in1032.8 mb 0.00 in0.0 mm 0.00 in0.0 mm 0.00 in0.0 mm
05:52 PM 25.5°F-3.6°C 15.7°F-9.1°C 66% 2.0 mph WNW3.2 kmh WNW 7.0 mph11.3 kmh 30.50 in1032.8 mb 0.00 in0.0 mm 0.00 in0.0 mm 0.00 in0.0 mm
05:54 PM 25.4°F-3.7°C 15.6°F-9.1°C 66% 2.0 mph WNW3.2 kmh WNW 7.0 mph11.3 kmh 30.50 in1032.8 mb 0.00 in0.0 mm 0.00 in0.0 mm 0.00 in0.0 mm
05:56 PM 25.3°F-3.7°C 15.9°F-8.9°C 67% 2.0 mph WNW3.2 kmh WNW 5.0 mph8.0 kmh 30.50 in1032.8 mb 0.00 in0.0 mm 0.00 in0.0 mm 0.00 in0.0 mm
05:58 PM 25.3°F-3.7°C 15.9°F-8.9°C 67% 2.0 mph WNW3.2 kmh WNW 5.0 mph8.0 kmh 30.50 in1032.8 mb 0.00 in0.0 mm 0.00 in0.0 mm 0.00 in0.0 mm
06:00 PM 25.2°F-3.8°C 15.8°F-9.0°C 67% 2.0 mph WNW3.2 kmh WNW 5.0 mph8.0 kmh 30.50 in1032.8 mb 0.00 in0.0 mm 0.00 in0.0 mm 0.00 in0.0 mm
06:02 PM 25.1°F-3.8°C 16.0°F-8.9°C 68% 2.0 mph WNW3.2 kmh WNW 4.0 mph6.4 kmh 30.50 in1032.8 mb 0.00 in0.0 mm 0.00 in0.0 mm 0.00 in0.0 mm
06:04 PM 25.1°F-3.8°C 15.7°F-9.1°C 67% 2.0 mph WNW3.2 kmh WNW 4.0 mph6.4 kmh 30.50 in1032.8 mb 0.00 in0.0 mm 0.00 in0.0 mm 0.00 in0.0 mm
06:06 PM 25.0°F-3.9°C 15.9°F-8.9°C 68% 2.0 mph WNW3.2 kmh WNW 4.0 mph6.4 kmh 30.50 in1032.8 mb 0.00 in0.0 mm 0.00 in0.0 mm 0.00 in0.0 mm
06:08 PM 24.9°F-3.9°C 15.8°F-9.0°C 68% 2.0 mph WNW3.2 kmh WNW 4.0 mph6.4 kmh 30.50 in1032.8 mb 0.00 in0.0 mm 0.00 in0.0 mm 0.00 in0.0 mm
06:10 PM 24.9°F-3.9°C 15.8°F-9.0°C 68% 2.0 mph WNW3.2 kmh WNW 4.0 mph6.4 kmh 30.50 in1032.8 mb 0.00 in0.0 mm 0.00 in0.0 mm 0.00 in0.0 mm
06:12 PM 24.8°F-4.0°C 15.7°F-9.1°C 68% 2.0 mph WNW3.2 kmh WNW 5.0 mph8.0 kmh 30.50 in1032.8 mb 0.00 in0.0 mm 0.00 in0.0 mm 0.00 in0.0 mm
06:14 PM 24.8°F-4.0°C 15.7°F-9.1°C 68% 2.0 mph WNW3.2 kmh WNW 5.0 mph8.0 kmh 30.50 in1032.8 mb 0.00 in0.0 mm 0.00 in0.0 mm 0.00 in0.0 mm
06:16 PM 24.7°F-4.1°C 15.6°F-9.1°C 68% 2.0 mph WNW3.2 kmh WNW 5.0 mph8.0 kmh 30.50 in1032.8 mb 0.00 in0.0 mm 0.00 in0.0 mm 0.00 in0.0 mm
06:18 PM 24.7°F-4.1°C 16.0°F-8.9°C 69% 2.0 mph WNW3.2 kmh WNW 5.0 mph8.0 kmh 30.50 in1032.8 mb 0.00 in0.0 mm 0.00 in0.0 mm 0.00 in0.0 mm
06:20 PM 24.6°F-4.1°C 15.9°F-8.9°C 69% 1.0 mph WNW1.6 kmh WNW 5.0 mph8.0 kmh 30.50 in1032.8 mb 0.00 in0.0 mm 0.00 in0.0 mm 0.00 in0.0 mm
06:22 PM 24.5°F-4.2°C 15.8°F-9.0°C 69% 1.0 mph WNW1.6 kmh WNW 3.0 mph4.8 kmh 30.50 in1032.8 mb 0.00 in0.0 mm 0.00 in0.0 mm 0.00 in0.0 mm
06:24 PM 24.5°F-4.2°C 16.1°F-8.8°C 70% 1.0 mph WNW1.6 kmh WNW 3.0 mph4.8 kmh 30.50 in1032.8 mb 0.00 in0.0 mm 0.00 in0.0 mm 0.00 in0.0 mm
06:26 PM 24.4°F-4.2°C 16.0°F-8.9°C 70% 1.0 mph WNW1.6 kmh WNW 3.0 mph4.8 kmh 30.50 in1032.8 mb 0.00 in0.0 mm 0.00 in0.0 mm 0.00 in0.0 mm
06:28 PM 24.3°F-4.3°C 15.9°F-8.9°C 70% 1.0 mph WNW1.6 kmh WNW 3.0 mph4.8 kmh 30.50 in1032.8 mb 0.00 in0.0 mm 0.00 in0.0 mm 0.00 in0.0 mm
06:30 PM 24.3°F-4.3°C 15.9°F-8.9°C 70% 1.0 mph WNW1.6 kmh WNW 3.0 mph4.8 kmh 30.50 in1032.8 mb 0.00 in0.0 mm 0.00 in0.0 mm 0.00 in0.0 mm
06:32 PM 24.1°F-4.4°C 16.1°F-8.8°C 71% 1.0 mph WNW1.6 kmh WNW 3.0 mph4.8 kmh 30.50 in1032.8 mb 0.00 in0.0 mm 0.00 in0.0 mm 0.00 in0.0 mm
06:34 PM 24.0°F-4.4°C 16.0°F-8.9°C 71% 1.0 mph WNW1.6 kmh WNW 3.0 mph4.8 kmh 30.50 in1032.8 mb 0.00 in0.0 mm 0.00 in0.0 mm 0.00 in0.0 mm
06:36 PM 23.9°F-4.5°C 15.9°F-8.9°C 71% 1.0 mph WNW1.6 kmh WNW 3.0 mph4.8 kmh 30.50 in1032.8 mb 0.00 in0.0 mm 0.00 in0.0 mm 0.00 in0.0 mm
06:38 PM 23.8°F-4.6°C 16.1°F-8.8°C 72% 1.0 mph WNW1.6 kmh WNW 2.0 mph3.2 kmh 30.51 in1033.2 mb 0.00 in0.0 mm 0.00 in0.0 mm 0.00 in0.0 mm
06:40 PM 23.7°F-4.6°C 16.0°F-8.9°C 72% 1.0 mph WNW1.6 kmh WNW 2.0 mph3.2 kmh 30.51 in1033.2 mb 0.00 in0.0 mm 0.00 in0.0 mm 0.00 in0.0 mm
06:42 PM 23.6°F-4.7°C 15.9°F-8.9°C 72% 1.0 mph WNW1.6 kmh WNW 3.0 mph4.8 kmh 30.51 in1033.2 mb 0.00 in0.0 mm 0.00 in0.0 mm 0.00 in0.0 mm
06:44 PM 23.5°F-4.7°C 15.8°F-9.0°C 72% 1.0 mph WNW1.6 kmh WNW 3.0 mph4.8 kmh 30.51 in1033.2 mb 0.00 in0.0 mm 0.00 in0.0 mm 0.00 in0.0 mm
06:46 PM 23.4°F-4.8°C 16.0°F-8.9°C 73% 1.0 mph WNW1.6 kmh WNW 3.0 mph4.8 kmh 30.51 in1033.2 mb 0.00 in0.0 mm 0.00 in0.0 mm 0.00 in0.0 mm
06:48 PM 23.3°F-4.8°C 15.9°F-8.9°C 73% 1.0 mph WNW1.6 kmh WNW 3.0 mph4.8 kmh 30.51 in1033.2 mb 0.00 in0.0 mm 0.00 in0.0 mm 0.00 in0.0 mm
06:50 PM 23.3°F-4.8°C 15.9°F-8.9°C 73% 1.0 mph WNW1.6 kmh WNW 3.0 mph4.8 kmh 30.51 in1033.2 mb 0.00 in0.0 mm 0.00 in0.0 mm 0.00 in0.0 mm
06:52 PM 23.2°F-4.9°C 15.8°F-9.0°C 73% 1.0 mph WNW1.6 kmh WNW 3.0 mph4.8 kmh 30.51 in1033.2 mb 0.00 in0.0 mm 0.00 in0.0 mm 0.00 in0.0 mm
06:54 PM 23.1°F-4.9°C 16.0°F-8.9°C 74% 1.0 mph WNW1.6 kmh WNW 2.0 mph3.2 kmh 30.51 in1033.2 mb 0.00 in0.0 mm 0.00 in0.0 mm 0.00 in0.0 mm
06:56 PM 23.0°F-5.0°C 15.9°F-8.9°C 74% 1.0 mph WNW1.6 kmh WNW 2.0 mph3.2 kmh 30.51 in1033.2 mb 0.00 in0.0 mm 0.00 in0.0 mm 0.00 in0.0 mm
06:58 PM 22.9°F-5.1°C 16.2°F-8.8°C 75% 1.0 mph WNW1.6 kmh WNW 2.0 mph3.2 kmh 30.51 in1033.2 mb 0.00 in0.0 mm 0.00 in0.0 mm 0.00 in0.0 mm
07:00 PM 22.8°F-5.1°C 16.1°F-8.8°C 75% 1.0 mph WNW1.6 kmh WNW 2.0 mph3.2 kmh 30.51 in1033.2 mb 0.00 in0.0 mm 0.00 in0.0 mm 0.00 in0.0 mm
07:02 PM 22.7°F-5.2°C 16.0°F-8.9°C 75% 1.0 mph WNW1.6 kmh WNW 3.0 mph4.8 kmh 30.51 in1033.2 mb 0.00 in0.0 mm 0.00 in0.0 mm 0.00 in0.0 mm
07:04 PM 22.6°F-5.2°C 15.9°F-8.9°C 75% 1.0 mph WNW1.6 kmh WNW 3.0 mph4.8 kmh 30.51 in1033.2 mb 0.00 in0.0 mm 0.00 in0.0 mm 0.00 in0.0 mm
07:06 PM 22.5°F-5.3°C 16.1°F-8.8°C 76% 1.0 mph WNW1.6 kmh WNW 3.0 mph4.8 kmh 30.51 in1033.2 mb 0.00 in0.0 mm 0.00 in0.0 mm 0.00 in0.0 mm
07:08 PM 22.4°F-5.3°C 16.0°F-8.9°C 76% 2.0 mph WNW3.2 kmh WNW 3.0 mph4.8 kmh 30.51 in1033.2 mb 0.00 in0.0 mm 0.00 in0.0 mm 0.00 in0.0 mm
07:10 PM 22.4°F-5.3°C 16.0°F-8.9°C 76% 2.0 mph WNW3.2 kmh WNW 3.0 mph4.8 kmh 30.51 in1033.2 mb 0.00 in0.0 mm 0.00 in0.0 mm 0.00 in0.0 mm
07:12 PM 22.4°F-5.3°C 16.0°F-8.9°C 76% 1.0 mph WNW1.6 kmh WNW 3.0 mph4.8 kmh 30.51 in1033.2 mb 0.00 in0.0 mm 0.00 in0.0 mm 0.00 in0.0 mm
07:14 PM 22.4°F-5.3°C 16.3°F-8.7°C 77% 1.0 mph WNW1.6 kmh WNW 3.0 mph4.8 kmh 30.51 in1033.2 mb 0.00 in0.0 mm 0.00 in0.0 mm 0.00 in0.0 mm
07:16 PM 22.3°F-5.4°C 16.2°F-8.8°C 77% 1.0 mph WNW1.6 kmh WNW 3.0 mph4.8 kmh 30.51 in1033.2 mb 0.00 in0.0 mm 0.00 in0.0 mm 0.00 in0.0 mm
07:18 PM 22.3°F-5.4°C 16.2°F-8.8°C 77% 1.0 mph WNW1.6 kmh WNW 3.0 mph4.8 kmh 30.51 in1033.2 mb 0.00 in0.0 mm 0.00 in0.0 mm 0.00 in0.0 mm
07:20 PM 22.2°F-5.4°C 16.1°F-8.8°C 77% 1.0 mph WNW1.6 kmh WNW 3.0 mph4.8 kmh 30.51 in1033.2 mb 0.00 in0.0 mm 0.00 in0.0 mm 0.00 in0.0 mm
07:22 PM 22.2°F-5.4°C 16.1°F-8.8°C 77% 1.0 mph WNW1.6 kmh WNW 3.0 mph4.8 kmh 30.51 in1033.2 mb 0.00 in0.0 mm 0.00 in0.0 mm 0.00 in0.0 mm
07:24 PM 22.2°F-5.4°C 16.1°F-8.8°C 77% 1.0 mph WNW1.6 kmh WNW 3.0 mph4.8 kmh 30.51 in1033.2 mb 0.00 in0.0 mm 0.00 in0.0 mm 0.00 in0.0 mm
07:26 PM 22.2°F-5.4°C 16.1°F-8.8°C 77% 1.0 mph WNW1.6 kmh WNW 3.0 mph4.8 kmh 30.51 in1033.2 mb 0.00 in0.0 mm 0.00 in0.0 mm 0.00 in0.0 mm
07:28 PM 22.2°F-5.4°C 16.4°F-8.7°C 78% 1.0 mph WNW1.6 kmh WNW 3.0 mph4.8 kmh 30.51 in1033.2 mb 0.00 in0.0 mm 0.00 in0.0 mm 0.00 in0.0 mm
07:30 PM 22.1°F-5.5°C 16.3°F-8.7°C 78% 1.0 mph WNW1.6 kmh WNW 3.0 mph4.8 kmh 30.51 in1033.2 mb 0.00 in0.0 mm 0.00 in0.0 mm 0.00 in0.0 mm
07:32 PM 22.1°F-5.5°C 16.3°F-8.7°C 78% 1.0 mph WNW1.6 kmh WNW 3.0 mph4.8 kmh 30.51 in1033.2 mb 0.00 in0.0 mm 0.00 in0.0 mm 0.00 in0.0 mm
07:34 PM 22.1°F-5.5°C 16.3°F-8.7°C 78% 1.0 mph WNW1.6 kmh WNW 4.0 mph6.4 kmh 30.51 in1033.2 mb 0.00 in0.0 mm 0.00 in0.0 mm 0.00 in0.0 mm
07:36 PM 22.1°F-5.5°C 16.3°F-8.7°C 78% 1.0 mph WNW1.6 kmh WNW 4.0 mph6.4 kmh 30.51 in1033.2 mb 0.00 in0.0 mm 0.00 in0.0 mm 0.00 in0.0 mm
07:38 PM 22.1°F-5.5°C 16.3°F-8.7°C 78% 1.0 mph WNW1.6 kmh WNW 4.0 mph6.4 kmh 30.51 in1033.2 mb 0.00 in0.0 mm 0.00 in0.0 mm 0.00 in0.0 mm
07:40 PM 22.2°F-5.4°C 16.4°F-8.7°C 78% 1.0 mph WNW1.6 kmh WNW 4.0 mph6.4 kmh 30.51 in1033.2 mb 0.00 in0.0 mm 0.00 in0.0 mm 0.00 in0.0 mm
07:42 PM 22.2°F-5.4°C 16.4°F-8.7°C 78% 1.0 mph WNW1.6 kmh WNW 4.0 mph6.4 kmh 30.51 in1033.2 mb 0.00 in0.0 mm 0.00 in0.0 mm 0.00 in0.0 mm
07:44 PM 22.2°F-5.4°C 16.4°F-8.7°C 78% 1.0 mph WNW1.6 kmh WNW 4.0 mph6.4 kmh 30.51 in1033.2 mb 0.00 in0.0 mm 0.00 in0.0 mm 0.00 in0.0 mm
07:46 PM 22.2°F-5.4°C 16.4°F-8.7°C 78% 2.0 mph NW3.2 kmh NW 4.0 mph6.4 kmh 30.51 in1033.2 mb 0.00 in0.0 mm 0.00 in0.0 mm 0.00 in0.0 mm
07:48 PM 22.3°F-5.4°C 16.5°F-8.6°C 78% 2.0 mph NW3.2 kmh NW 5.0 mph8.0 kmh 30.51 in1033.2 mb 0.00 in0.0 mm 0.00 in0.0 mm 0.00 in0.0 mm
07:50 PM 22.4°F-5.3°C 16.6°F-8.6°C 78% 2.0 mph NW3.2 kmh NW 5.0 mph8.0 kmh 30.51 in1033.2 mb 0.00 in0.0 mm 0.00 in0.0 mm 0.00 in0.0 mm
07:52 PM 22.5°F-5.3°C 16.4°F-8.7°C 77% 2.0 mph NW3.2 kmh NW 5.0 mph8.0 kmh 30.51 in1033.2 mb 0.00 in0.0 mm 0.00 in0.0 mm 0.00 in0.0 mm
07:54 PM 22.5°F-5.3°C 16.4°F-8.7°C 77% 3.0 mph NW4.8 kmh NW 5.0 mph8.0 kmh 30.51 in1033.2 mb 0.00 in0.0 mm 0.00 in0.0 mm 0.00 in0.0 mm
07:56 PM 22.6°F-5.2°C 16.5°F-8.6°C 77% 3.0 mph NW4.8 kmh NW 5.0 mph8.0 kmh 30.51 in1033.2 mb 0.00 in0.0 mm 0.00 in0.0 mm 0.00 in0.0 mm
07:58 PM 22.7°F-5.2°C 16.6°F-8.6°C 77% 3.0 mph NW4.8 kmh NW 5.0 mph8.0 kmh 30.51 in1033.2 mb 0.00 in0.0 mm 0.00 in0.0 mm 0.00 in0.0 mm
08:00 PM 22.8°F-5.1°C 16.7°F-8.5°C 77% 3.0 mph NW4.8 kmh NW 5.0 mph8.0 kmh 30.51 in1033.2 mb 0.00 in0.0 mm 0.00 in0.0 mm 0.00 in0.0 mm
08:02 PM 22.9°F-5.1°C 16.8°F-8.4°C 77% 3.0 mph NW4.8 kmh NW 7.0 mph11.3 kmh 30.51 in1033.2 mb 0.00 in0.0 mm 0.00 in0.0 mm 0.00 in0.0 mm
08:04 PM 22.9°F-5.1°C 16.5°F-8.6°C 76% 3.0 mph NW4.8 kmh NW 7.0 mph11.3 kmh 30.51 in1033.2 mb 0.00 in0.0 mm 0.00 in0.0 mm 0.00 in0.0 mm
08:06 PM 22.9°F-5.1°C 16.5°F-8.6°C 76% 3.0 mph NW4.8 kmh NW 7.0 mph11.3 kmh 30.51 in1033.2 mb 0.00 in0.0 mm 0.00 in0.0 mm 0.00 in0.0 mm
08:08 PM 23.0°F-5.0°C 16.6°F-8.6°C 76% 3.0 mph NW4.8 kmh NW 7.0 mph11.3 kmh 30.52 in1033.5 mb 0.00 in0.0 mm 0.00 in0.0 mm 0.00 in0.0 mm
08:10 PM 23.0°F-5.0°C 16.3°F-8.7°C 75% 3.0 mph NW4.8 kmh NW 7.0 mph11.3 kmh 30.51 in1033.2 mb 0.00 in0.0 mm 0.00 in0.0 mm 0.00 in0.0 mm
08:12 PM 23.0°F-5.0°C 16.3°F-8.7°C 75% 3.0 mph NW4.8 kmh NW 7.0 mph11.3 kmh 30.52 in1033.5 mb 0.00 in0.0 mm 0.00 in0.0 mm 0.00 in0.0 mm
08:14 PM 23.1°F-4.9°C 16.4°F-8.7°C 75% 3.0 mph NW4.8 kmh NW 7.0 mph11.3 kmh 30.52 in1033.5 mb 0.00 in0.0 mm 0.00 in0.0 mm 0.00 in0.0 mm
08:16 PM 23.1°F-4.9°C 16.4°F-8.7°C 75% 3.0 mph NW4.8 kmh NW 5.0 mph8.0 kmh 30.52 in1033.5 mb 0.00 in0.0 mm 0.00 in0.0 mm 0.00 in0.0 mm
08:18 PM 23.1°F-4.9°C 16.4°F-8.7°C 75% 2.0 mph NW3.2 kmh NW 5.0 mph8.0 kmh 30.51 in1033.2 mb 0.00 in0.0 mm 0.00 in0.0 mm 0.00 in0.0 mm
08:20 PM 23.1°F-4.9°C 16.4°F-8.7°C 75% 2.0 mph NW3.2 kmh NW 5.0 mph8.0 kmh 30.52 in1033.5 mb 0.00 in0.0 mm 0.00 in0.0 mm 0.00 in0.0 mm
08:22 PM 23.0°F-5.0°C 16.3°F-8.7°C 75% 2.0 mph NW3.2 kmh NW 5.0 mph8.0 kmh 30.52 in1033.5 mb 0.00 in0.0 mm 0.00 in0.0 mm 0.00 in0.0 mm
08:24 PM 23.0°F-5.0°C 16.3°F-8.7°C 75% 2.0 mph NW3.2 kmh NW 5.0 mph8.0 kmh 30.51 in1033.2 mb 0.00 in0.0 mm 0.00 in0.0 mm 0.00 in0.0 mm
08:26 PM 23.0°F-5.0°C 16.3°F-8.7°C 75% 2.0 mph NW3.2 kmh NW 5.0 mph8.0 kmh 30.52 in1033.5 mb 0.00 in0.0 mm 0.00 in0.0 mm 0.00 in0.0 mm
08:28 PM 22.9°F-5.1°C 16.2°F-8.8°C 75% 2.0 mph NW3.2 kmh NW 4.0 mph6.4 kmh 30.52 in1033.5 mb 0.00 in0.0 mm 0.00 in0.0 mm 0.00 in0.0 mm
08:30 PM 22.9°F-5.1°C 16.5°F-8.6°C 76% 2.0 mph NW3.2 kmh NW 4.0 mph6.4 kmh 30.52 in1033.5 mb 0.00 in0.0 mm 0.00 in0.0 mm 0.00 in0.0 mm
08:32 PM 22.8°F-5.1°C 16.4°F-8.7°C 76% 1.0 mph NW1.6 kmh NW 4.0 mph6.4 kmh 30.52 in1033.5 mb 0.00 in0.0 mm 0.00 in0.0 mm 0.00 in0.0 mm
08:34 PM 22.7°F-5.2°C 16.3°F-8.7°C 76% 1.0 mph NW1.6 kmh NW 4.0 mph6.4 kmh 30.52 in1033.5 mb 0.00 in0.0 mm 0.00 in0.0 mm 0.00 in0.0 mm
08:36 PM 22.7°F-5.2°C 16.3°F-8.7°C 76% 1.0 mph NW1.6 kmh NW 4.0 mph6.4 kmh 30.52 in1033.5 mb 0.00 in0.0 mm 0.00 in0.0 mm 0.00 in0.0 mm
08:38 PM 22.6°F-5.2°C 16.5°F-8.6°C 77% 1.0 mph NW1.6 kmh NW 4.0 mph6.4 kmh 30.52 in1033.5 mb 0.00 in0.0 mm 0.00 in0.0 mm 0.00 in0.0 mm
08:40 PM 22.5°F-5.3°C 16.4°F-8.7°C 77% 1.0 mph NW1.6 kmh NW 4.0 mph6.4 kmh 30.52 in1033.5 mb 0.00 in0.0 mm 0.00 in0.0 mm 0.00 in0.0 mm
08:42 PM 22.5°F-5.3°C 16.4°F-8.7°C 77% 1.0 mph NW1.6 kmh NW 4.0 mph6.4 kmh 30.53 in1033.9 mb 0.00 in0.0 mm 0.00 in0.0 mm 0.00 in0.0 mm
08:44 PM 22.4°F-5.3°C 16.3°F-8.7°C 77% 1.0 mph NW1.6 kmh NW 3.0 mph4.8 kmh 30.53 in1033.9 mb 0.00 in0.0 mm 0.00 in0.0 mm 0.00 in0.0 mm
08:46 PM 22.3°F-5.4°C 16.5°F-8.6°C 78% 1.0 mph NW1.6 kmh NW 3.0 mph4.8 kmh 30.53 in1033.9 mb 0.00 in0.0 mm 0.00 in0.0 mm 0.00 in0.0 mm
08:48 PM 22.2°F-5.4°C 16.4°F-8.7°C 78% 1.0 mph NW1.6 kmh NW 3.0 mph4.8 kmh 30.53 in1033.9 mb 0.00 in0.0 mm 0.00 in0.0 mm 0.00 in0.0 mm
08:50 PM 22.2°F-5.4°C 16.4°F-8.7°C 78% 1.0 mph NW1.6 kmh NW 3.0 mph4.8 kmh 30.53 in1033.9 mb 0.00 in0.0 mm 0.00 in0.0 mm 0.00 in0.0 mm
08:52 PM 22.1°F-5.5°C 16.3°F-8.7°C 78% 1.0 mph NW1.6 kmh NW 3.0 mph4.8 kmh 30.53 in1033.9 mb 0.00 in0.0 mm 0.00 in0.0 mm 0.00 in0.0 mm
08:54 PM 22.0°F-5.6°C 16.5°F-8.6°C 79% 1.0 mph NW1.6 kmh NW 3.0 mph4.8 kmh 30.53 in1033.9 mb 0.00 in0.0 mm 0.00 in0.0 mm 0.00 in0.0 mm
08:56 PM 22.0°F-5.6°C 16.5°F-8.6°C 79% 1.0 mph NW1.6 kmh NW 3.0 mph4.8 kmh 30.53 in1033.9 mb 0.00 in0.0 mm 0.00 in0.0 mm 0.00 in0.0 mm
08:58 PM 21.9°F-5.6°C 16.4°F-8.7°C 79% 1.0 mph NW1.6 kmh NW 3.0 mph4.8 kmh 30.53 in1033.9 mb 0.00 in0.0 mm 0.00 in0.0 mm 0.00 in0.0 mm
09:00 PM 21.8°F-5.7°C 16.6°F-8.6°C 80% 1.0 mph NW1.6 kmh NW 3.0 mph4.8 kmh 30.53 in1033.9 mb 0.00 in0.0 mm 0.00 in0.0 mm 0.00 in0.0 mm
09:02 PM 21.8°F-5.7°C 16.6°F-8.6°C 80% 1.0 mph NW1.6 kmh NW 3.0 mph4.8 kmh 30.53 in1033.9 mb 0.00 in0.0 mm 0.00 in0.0 mm 0.00 in0.0 mm
09:04 PM 21.7°F-5.7°C 16.5°F-8.6°C 80% 1.0 mph NW1.6 kmh NW 3.0 mph4.8 kmh 30.53 in1033.9 mb 0.00 in0.0 mm 0.00 in0.0 mm 0.00 in0.0 mm
09:06 PM 21.7°F-5.7°C 16.5°F-8.6°C 80% 1.0 mph NW1.6 kmh NW 3.0 mph4.8 kmh 30.53 in1033.9 mb 0.00 in0.0 mm 0.00 in0.0 mm 0.00 in0.0 mm
09:08 PM 21.6°F-5.8°C 16.4°F-8.7°C 80% 1.0 mph NW1.6 kmh NW 3.0 mph4.8 kmh 30.53 in1033.9 mb 0.00 in0.0 mm 0.00 in0.0 mm 0.00 in0.0 mm
09:10 PM 21.6°F-5.8°C 16.7°F-8.5°C 81% 1.0 mph NW1.6 kmh NW 2.0 mph3.2 kmh 30.54 in1034.2 mb 0.00 in0.0 mm 0.00 in0.0 mm 0.00 in0.0 mm
09:12 PM 21.6°F-5.8°C 16.7°F-8.5°C 81% 1.0 mph NW1.6 kmh NW 2.0 mph3.2 kmh 30.53 in1033.9 mb 0.00 in0.0 mm 0.00 in0.0 mm 0.00 in0.0 mm
09:14 PM 21.5°F-5.8°C 16.6°F-8.6°C 81% 1.0 mph NW1.6 kmh NW 3.0 mph4.8 kmh 30.53 in1033.9 mb 0.00 in0.0 mm 0.00 in0.0 mm 0.00 in0.0 mm
09:16 PM 21.5°F-5.8°C 16.6°F-8.6°C 81% 1.0 mph NW1.6 kmh NW 3.0 mph4.8 kmh 30.53 in1033.9 mb 0.00 in0.0 mm 0.00 in0.0 mm 0.00 in0.0 mm
09:18 PM 21.4°F-5.9°C 16.5°F-8.6°C 81% 1.0 mph NW1.6 kmh NW 4.0 mph6.4 kmh 30.53 in1033.9 mb 0.00 in0.0 mm 0.00 in0.0 mm 0.00 in0.0 mm
09:20 PM 21.4°F-5.9°C 16.5°F-8.6°C 81% 1.0 mph NW1.6 kmh NW 4.0 mph6.4 kmh 30.53 in1033.9 mb 0.00 in0.0 mm 0.00 in0.0 mm 0.00 in0.0 mm
09:22 PM 21.4°F-5.9°C 16.5°F-8.6°C 81% 1.0 mph NW1.6 kmh NW 4.0 mph6.4 kmh 30.54 in1034.2 mb 0.00 in0.0 mm 0.00 in0.0 mm 0.00 in0.0 mm
09:24 PM 21.4°F-5.9°C 16.5°F-8.6°C 81% 1.0 mph NW1.6 kmh NW 4.0 mph6.4 kmh 30.54 in1034.2 mb 0.00 in0.0 mm 0.00 in0.0 mm 0.00 in0.0 mm
09:26 PM 21.4°F-5.9°C 16.5°F-8.6°C 81% 2.0 mph NW3.2 kmh NW 4.0 mph6.4 kmh 30.54 in1034.2 mb 0.00 in0.0 mm 0.00 in0.0 mm 0.00 in0.0 mm
09:28 PM 21.4°F-5.9°C 16.5°F-8.6°C 81% 2.0 mph NW3.2 kmh NW 4.0 mph6.4 kmh 30.54 in1034.2 mb 0.00 in0.0 mm 0.00 in0.0 mm 0.00 in0.0 mm
09:30 PM 21.4°F-5.9°C 16.5°F-8.6°C 81% 2.0 mph NW3.2 kmh NW 4.0 mph6.4 kmh 30.54 in1034.2 mb 0.00 in0.0 mm 0.00 in0.0 mm 0.00 in0.0 mm
09:32 PM 21.4°F-5.9°C 16.5°F-8.6°C 81% 2.0 mph NW3.2 kmh NW 5.0 mph8.0 kmh 30.54 in1034.2 mb 0.00 in0.0 mm 0.00 in0.0 mm 0.00 in0.0 mm
09:34 PM 21.5°F-5.8°C 16.6°F-8.6°C 81% 2.0 mph NW3.2 kmh NW 5.0 mph8.0 kmh 30.54 in1034.2 mb 0.00 in0.0 mm 0.00 in0.0 mm 0.00 in0.0 mm
09:36 PM 21.5°F-5.8°C 16.6°F-8.6°C 81% 2.0 mph NW3.2 kmh NW 5.0 mph8.0 kmh 30.54 in1034.2 mb 0.00 in0.0 mm 0.00 in0.0 mm 0.00 in0.0 mm
09:38 PM 21.5°F-5.8°C 16.3°F-8.7°C 80% 2.0 mph NW3.2 kmh NW 5.0 mph8.0 kmh 30.54 in1034.2 mb 0.00 in0.0 mm 0.00 in0.0 mm 0.00 in0.0 mm
09:40 PM 21.5°F-5.8°C 16.3°F-8.7°C 80% 2.0 mph NW3.2 kmh NW 5.0 mph8.0 kmh 30.54 in1034.2 mb 0.00 in0.0 mm 0.00 in0.0 mm 0.00 in0.0 mm
09:42 PM 21.5°F-5.8°C 16.3°F-8.7°C 80% 2.0 mph WNW3.2 kmh WNW 5.0 mph8.0 kmh 30.54 in1034.2 mb 0.00 in0.0 mm 0.00 in0.0 mm 0.00 in0.0 mm
09:44 PM 21.5°F-5.8°C 16.3°F-8.7°C 80% 2.0 mph WNW3.2 kmh WNW 5.0 mph8.0 kmh 30.54 in1034.2 mb 0.00 in0.0 mm 0.00 in0.0 mm 0.00 in0.0 mm
09:46 PM 21.5°F-5.8°C 16.3°F-8.7°C 80% 2.0 mph WNW3.2 kmh WNW 5.0 mph8.0 kmh 30.54 in1034.2 mb 0.00 in0.0 mm 0.00 in0.0 mm 0.00 in0.0 mm
09:48 PM 21.5°F-5.8°C 16.3°F-8.7°C 80% 2.0 mph WNW3.2 kmh WNW 3.0 mph4.8 kmh 30.54 in1034.2 mb 0.00 in0.0 mm 0.00 in0.0 mm 0.00 in0.0 mm
09:50 PM 21.5°F-5.8°C 16.3°F-8.7°C 80% 2.0 mph WNW3.2 kmh WNW 3.0 mph4.8 kmh 30.54 in1034.2 mb 0.00 in0.0 mm 0.00 in0.0 mm 0.00 in0.0 mm
09:52 PM 21.5°F-5.8°C 16.3°F-8.7°C 80% 2.0 mph WNW3.2 kmh WNW 3.0 mph4.8 kmh 30.54 in1034.2 mb 0.00 in0.0 mm 0.00 in0.0 mm 0.00 in0.0 mm
09:54 PM 21.5°F-5.8°C 16.3°F-8.7°C 80% 2.0 mph WNW3.2 kmh WNW 3.0 mph4.8 kmh 30.54 in1034.2 mb 0.00 in0.0 mm 0.00 in0.0 mm 0.00 in0.0 mm
09:56 PM 21.5°F-5.8°C 16.3°F-8.7°C 80% 1.0 mph WNW1.6 kmh WNW 3.0 mph4.8 kmh 30.54 in1034.2 mb 0.00 in0.0 mm 0.00 in0.0 mm 0.00 in0.0 mm
09:58 PM 21.4°F-5.9°C 16.2°F-8.8°C 80% 1.0 mph NW1.6 kmh NW 3.0 mph4.8 kmh 30.54 in1034.2 mb 0.00 in0.0 mm 0.00 in0.0 mm 0.00 in0.0 mm
10:00 PM 21.4°F-5.9°C 16.2°F-8.8°C 80% 1.0 mph NW1.6 kmh NW 3.0 mph4.8 kmh 30.54 in1034.2 mb 0.00 in0.0 mm 0.00 in0.0 mm 0.00 in0.0 mm
10:02 PM 21.4°F-5.9°C 16.2°F-8.8°C 80% 1.0 mph NW1.6 kmh NW 3.0 mph4.8 kmh 30.55 in1034.5 mb 0.00 in0.0 mm 0.00 in0.0 mm 0.00 in0.0 mm
10:04 PM 21.3°F-5.9°C 16.4°F-8.7°C 81% 1.0 mph NW1.6 kmh NW 3.0 mph4.8 kmh 30.55 in1034.5 mb 0.00 in0.0 mm 0.00 in0.0 mm 0.00 in0.0 mm
10:06 PM 21.3°F-5.9°C 16.4°F-8.7°C 81% 1.0 mph NW1.6 kmh NW 3.0 mph4.8 kmh 30.55 in1034.5 mb 0.00 in0.0 mm 0.00 in0.0 mm 0.00 in0.0 mm
10:08 PM 21.2°F-6.0°C 16.3°F-8.7°C 81% 1.0 mph NW1.6 kmh NW 3.0 mph4.8 kmh 30.55 in1034.5 mb 0.00 in0.0 mm 0.00 in0.0 mm 0.00 in0.0 mm
10:10 PM 21.2°F-6.0°C 16.3°F-8.7°C 81% 1.0 mph NW1.6 kmh NW 3.0 mph4.8 kmh 30.55 in1034.5 mb 0.00 in0.0 mm 0.00 in0.0 mm 0.00 in0.0 mm
10:12 PM 21.2°F-6.0°C 16.3°F-8.7°C 81% 1.0 mph NW1.6 kmh NW 2.0 mph3.2 kmh 30.54 in1034.2 mb 0.00 in0.0 mm 0.00 in0.0 mm 0.00 in0.0 mm
10:14 PM 21.1°F-6.1°C 16.2°F-8.8°C 81% 1.0 mph NW1.6 kmh NW 2.0 mph3.2 kmh 30.54 in1034.2 mb 0.00 in0.0 mm 0.00 in0.0 mm 0.00 in0.0 mm
10:16 PM 21.1°F-6.1°C 16.2°F-8.8°C 81% 1.0 mph NW1.6 kmh NW 2.0 mph3.2 kmh 30.54 in1034.2 mb 0.00 in0.0 mm 0.00 in0.0 mm 0.00 in0.0 mm
10:18 PM 21.0°F-6.1°C 16.1°F-8.8°C 81% 1.0 mph NW1.6 kmh NW 2.0 mph3.2 kmh 30.54 in1034.2 mb 0.00 in0.0 mm 0.00 in0.0 mm 0.00 in0.0 mm
10:20 PM 21.0°F-6.1°C 16.1°F-8.8°C 81% 1.0 mph NW1.6 kmh NW 2.0 mph3.2 kmh 30.54 in1034.2 mb 0.00 in0.0 mm 0.00 in0.0 mm 0.00 in0.0 mm
10:22 PM 20.9°F-6.2°C 16.0°F-8.9°C 81% 1.0 mph NW1.6 kmh NW 2.0 mph3.2 kmh 30.54 in1034.2 mb 0.00 in0.0 mm 0.00 in0.0 mm 0.00 in0.0 mm
10:24 PM 20.9°F-6.2°C 16.3°F-8.7°C 82% 1.0 mph NW1.6 kmh NW 2.0 mph3.2 kmh 30.54 in1034.2 mb 0.00 in0.0 mm 0.00 in0.0 mm 0.00 in0.0 mm
10:26 PM 20.9°F-6.2°C 16.3°F-8.7°C 82% 1.0 mph NW1.6 kmh NW 2.0 mph3.2 kmh 30.54 in1034.2 mb 0.00 in0.0 mm 0.00 in0.0 mm 0.00 in0.0 mm
10:28 PM 20.8°F-6.2°C 16.2°F-8.8°C 82% 1.0 mph NW1.6 kmh NW 4.0 mph6.4 kmh 30.54 in1034.2 mb 0.00 in0.0 mm 0.00 in0.0 mm 0.00 in0.0 mm
10:30 PM 20.7°F-6.3°C 16.1°F-8.8°C 82% 1.0 mph NW1.6 kmh NW 4.0 mph6.4 kmh 30.54 in1034.2 mb 0.00 in0.0 mm 0.00 in0.0 mm 0.00 in0.0 mm
10:32 PM 20.7°F-6.3°C 16.1°F-8.8°C 82% 1.0 mph NW1.6 kmh NW 4.0 mph6.4 kmh 30.54 in1034.2 mb 0.00 in0.0 mm 0.00 in0.0 mm 0.00 in0.0 mm
10:34 PM 20.7°F-6.3°C 16.4°F-8.7°C 83% 1.0 mph NW1.6 kmh NW 4.0 mph6.4 kmh 30.54 in1034.2 mb 0.00 in0.0 mm 0.00 in0.0 mm 0.00 in0.0 mm
10:36 PM 20.7°F-6.3°C 16.4°F-8.7°C 83% 1.0 mph NW1.6 kmh NW 4.0 mph6.4 kmh 30.54 in1034.2 mb 0.00 in0.0 mm 0.00 in0.0 mm 0.00 in0.0 mm
10:38 PM 20.6°F-6.3°C 16.3°F-8.7°C 83% 1.0 mph NW1.6 kmh NW 2.0 mph3.2 kmh 30.54 in1034.2 mb 0.00 in0.0 mm 0.00 in0.0 mm 0.00 in0.0 mm
10:40 PM 20.6°F-6.3°C 16.3°F-8.7°C 83% 1.0 mph NW1.6 kmh NW 2.0 mph3.2 kmh 30.54 in1034.2 mb 0.00 in0.0 mm 0.00 in0.0 mm 0.00 in0.0 mm
10:42 PM 20.6°F-6.3°C 16.3°F-8.7°C 83% 1.0 mph NW1.6 kmh NW 2.0 mph3.2 kmh 30.54 in1034.2 mb 0.00 in0.0 mm 0.00 in0.0 mm 0.00 in0.0 mm
10:44 PM 20.5°F-6.4°C 16.2°F-8.8°C 83% 1.0 mph NW1.6 kmh NW 2.0 mph3.2 kmh 30.54 in1034.2 mb 0.00 in0.0 mm 0.00 in0.0 mm 0.00 in0.0 mm
10:46 PM 20.5°F-6.4°C 16.2°F-8.8°C 83% 1.0 mph NW1.6 kmh NW 2.0 mph3.2 kmh 30.54 in1034.2 mb 0.00 in0.0 mm 0.00 in0.0 mm 0.00 in0.0 mm
10:48 PM 20.4°F-6.4°C 16.1°F-8.8°C 83% 1.0 mph NW1.6 kmh NW 2.0 mph3.2 kmh 30.54 in1034.2 mb 0.00 in0.0 mm 0.00 in0.0 mm 0.00 in0.0 mm
10:50 PM 20.4°F-6.4°C 16.1°F-8.8°C 83% 1.0 mph NW1.6 kmh NW 2.0 mph3.2 kmh 30.54 in1034.2 mb 0.00 in0.0 mm 0.00 in0.0 mm 0.00 in0.0 mm
10:52 PM 20.3°F-6.5°C 16.0°F-8.9°C 83% 1.0 mph NW1.6 kmh NW 2.0 mph3.2 kmh 30.54 in1034.2 mb 0.00 in0.0 mm 0.00 in0.0 mm 0.00 in0.0 mm
10:54 PM 20.3°F-6.5°C 16.0°F-8.9°C 83% 1.0 mph NW1.6 kmh NW 2.0 mph3.2 kmh 30.54 in1034.2 mb 0.00 in0.0 mm 0.00 in0.0 mm 0.00 in0.0 mm
10:56 PM 20.2°F-6.6°C 15.9°F-8.9°C 83% Calm Calm 2.0 mph3.2 kmh 30.54 in1034.2 mb 0.00 in0.0 mm 0.00 in0.0 mm 0.00 in0.0 mm
10:58 PM 20.2°F-6.6°C 15.9°F-8.9°C 83% 1.0 mph NW1.6 kmh NW 2.0 mph3.2 kmh 30.54 in1034.2 mb 0.00 in0.0 mm 0.00 in0.0 mm 0.00 in0.0 mm
11:00 PM 20.2°F-6.6°C 15.9°F-8.9°C 83% Calm Calm 2.0 mph3.2 kmh 30.54 in1034.2 mb 0.00 in0.0 mm 0.00 in0.0 mm 0.00 in0.0 mm
11:02 PM 20.1°F-6.6°C 16.0°F-8.9°C 84% Calm Calm 2.0 mph3.2 kmh 30.54 in1034.2 mb 0.00 in0.0 mm 0.00 in0.0 mm 0.00 in0.0 mm
11:04 PM 20.1°F-6.6°C 15.8°F-9.0°C 83% Calm Calm 2.0 mph3.2 kmh 30.54 in1034.2 mb 0.00 in0.0 mm 0.00 in0.0 mm 0.00 in0.0 mm
11:06 PM 20.1°F-6.6°C 16.0°F-8.9°C 84% Calm Calm 2.0 mph3.2 kmh 30.54 in1034.2 mb 0.00 in0.0 mm 0.00 in0.0 mm 0.00 in0.0 mm
11:08 PM 20.0°F-6.7°C 15.9°F-8.9°C 84% Calm Calm 1.0 mph1.6 kmh 30.54 in1034.2 mb 0.00 in0.0 mm 0.00 in0.0 mm 0.00 in0.0 mm
11:10 PM 20.0°F-6.7°C 15.9°F-8.9°C 84% Calm Calm 1.0 mph1.6 kmh 30.54 in1034.2 mb 0.00 in0.0 mm 0.00 in0.0 mm 0.00 in0.0 mm
11:12 PM 20.0°F-6.7°C 15.9°F-8.9°C 84% Calm Calm 1.0 mph1.6 kmh 30.54 in1034.2 mb 0.00 in0.0 mm 0.00 in0.0 mm 0.00 in0.0 mm
11:14 PM 20.0°F-6.7°C 15.9°F-8.9°C 84% Calm Calm 1.0 mph1.6 kmh 30.54 in1034.2 mb 0.00 in0.0 mm 0.00 in0.0 mm 0.00 in0.0 mm
11:16 PM 19.9°F-6.7°C 15.8°F-9.0°C 84% Calm Calm 1.0 mph1.6 kmh 30.54 in1034.2 mb 0.00 in0.0 mm 0.00 in0.0 mm 0.00 in0.0 mm
11:18 PM 19.9°F-6.7°C 15.8°F-9.0°C 84% Calm Calm -- 30.54 in1034.2 mb 0.00 in0.0 mm 0.00 in0.0 mm 0.00 in0.0 mm
11:20 PM 19.9°F-6.7°C 15.8°F-9.0°C 84% Calm Calm 1.0 mph1.6 kmh 30.54 in1034.2 mb 0.00 in0.0 mm 0.00 in0.0 mm 0.00 in0.0 mm
11:22 PM 19.8°F-6.8°C 16.0°F-8.9°C 85% Calm Calm 1.0 mph1.6 kmh 30.54 in1034.2 mb 0.00 in0.0 mm 0.00 in0.0 mm 0.00 in0.0 mm
11:24 PM 19.8°F-6.8°C 16.0°F-8.9°C 85% Calm Calm 1.0 mph1.6 kmh 30.54 in1034.2 mb 0.00 in0.0 mm 0.00 in0.0 mm 0.00 in0.0 mm
11:26 PM 19.8°F-6.8°C 16.0°F-8.9°C 85% Calm Calm 1.0 mph1.6 kmh 30.54 in1034.2 mb 0.00 in0.0 mm 0.00 in0.0 mm 0.00 in0.0 mm
11:28 PM 19.7°F-6.8°C 15.9°F-8.9°C 85% Calm Calm 1.0 mph1.6 kmh 30.54 in1034.2 mb 0.00 in0.0 mm 0.00 in0.0 mm 0.00 in0.0 mm
11:30 PM 19.7°F-6.8°C 15.9°F-8.9°C 85% Calm Calm 1.0 mph1.6 kmh 30.54 in1034.2 mb 0.00 in0.0 mm 0.00 in0.0 mm 0.00 in0.0 mm
11:32 PM 19.7°F-6.8°C 15.9°F-8.9°C 85% Calm Calm 1.0 mph1.6 kmh 30.54 in1034.2 mb 0.00 in0.0 mm 0.00 in0.0 mm 0.00 in0.0 mm
11:34 PM 19.7°F-6.8°C 15.9°F-8.9°C 85% Calm Calm 1.0 mph1.6 kmh 30.54 in1034.2 mb 0.00 in0.0 mm 0.00 in0.0 mm 0.00 in0.0 mm
11:36 PM 19.6°F-6.9°C 16.1°F-8.8°C 86% Calm Calm 1.0 mph1.6 kmh 30.54 in1034.2 mb 0.00 in0.0 mm 0.00 in0.0 mm 0.00 in0.0 mm
11:38 PM 19.6°F-6.9°C 16.1°F-8.8°C 86% Calm Calm 1.0 mph1.6 kmh 30.54 in1034.2 mb 0.00 in0.0 mm 0.00 in0.0 mm 0.00 in0.0 mm
11:40 PM 19.5°F-6.9°C 15.7°F-9.1°C 85% Calm Calm 1.0 mph1.6 kmh 30.54 in1034.2 mb 0.00 in0.0 mm 0.00 in0.0 mm 0.00 in0.0 mm
11:42 PM 19.5°F-6.9°C 16.0°F-8.9°C 86% Calm Calm 1.0 mph1.6 kmh 30.54 in1034.2 mb 0.00 in0.0 mm 0.00 in0.0 mm 0.00 in0.0 mm
11:44 PM 19.5°F-6.9°C 16.0°F-8.9°C 86% Calm Calm 1.0 mph1.6 kmh 30.55 in1034.5 mb 0.00 in0.0 mm 0.00 in0.0 mm 0.00 in0.0 mm
11:46 PM 19.5°F-6.9°C 16.0°F-8.9°C 86% Calm Calm 1.0 mph1.6 kmh 30.55 in1034.5 mb 0.00 in0.0 mm 0.00 in0.0 mm 0.00 in0.0 mm
11:48 PM 19.5°F-6.9°C 16.0°F-8.9°C 86% Calm Calm 1.0 mph1.6 kmh 30.55 in1034.5 mb 0.00 in0.0 mm 0.00 in0.0 mm 0.00 in0.0 mm
11:50 PM 19.4°F-7.0°C 15.9°F-8.9°C 86% Calm Calm -- 30.55 in1034.5 mb 0.00 in0.0 mm 0.00 in0.0 mm 0.00 in0.0 mm
11:52 PM 19.4°F-7.0°C 15.9°F-8.9°C 86% Calm Calm -- 30.55 in1034.5 mb 0.00 in0.0 mm 0.00 in0.0 mm 0.00 in0.0 mm
11:54 PM 19.4°F-7.0°C 15.9°F-8.9°C 86% Calm Calm -- 30.55 in1034.5 mb 0.00 in0.0 mm 0.00 in0.0 mm 0.00 in0.0 mm
11:56 PM 19.3°F-7.1°C 15.8°F-9.0°C 86% Calm Calm -- 30.55 in1034.5 mb 0.00 in0.0 mm 0.00 in0.0 mm 0.00 in0.0 mm
11:58 PM 19.3°F-7.1°C 15.8°F-9.0°C 86% Calm Calm -- 30.55 in1034.5 mb 0.00 in0.0 mm 0.00 in0.0 mm 0.00 in0.0 mm